KLM646 KJFK-EHAM
Flight info
| Callsign | KLM646 |
|---|---|
| Flight time | 6h 27m |
| Altitude | 35000 |
| Route | MERIT DCT HFD DCT PUT DCT WITCH DCT ALLEX N535B UMESI/M084F370 DCT 5130N05000W 5330N04000W 5430N03000W 5430N02000W DCT NEBIN DCT OLGON/N0481F390 DCT LIFFY DCT DOLAS L603 LAMSO |
| Aircraft | B77W/H-SDE2E3FGHIJ3J5P2RWXY/LB1D1 |
Departure
| Time | 2026-05-08 12:01 |
|---|---|
| Airport | John F. Kennedy International Airport (KJFK) |
Arrival
| Time | 2026-05-08 18:28 |
|---|---|
| Airport | Amsterdam Airport Schiphol (EHAM) |
| Time | Latitude | Longitude | Altitude | Speed | Heading |
|---|---|---|---|---|---|
| 2026-05-08 11:31 | 40.64098 | -73.78320 | 28 ft | 0 kts | 61° |
| 2026-05-08 11:48 | 40.64092 | -73.78334 | 26 ft | 4 kts | 61° |
| 2026-05-08 11:48 | 40.64079 | -73.78366 | 28 ft | 4 kts | 61° |
| 2026-05-08 11:49 | 40.64067 | -73.78395 | 28 ft | 4 kts | 78° |
| 2026-05-08 11:49 | 40.64071 | -73.78424 | 28 ft | 4 kts | 136° |
| 2026-05-08 11:49 | 40.64083 | -73.78437 | 28 ft | 0 kts | 151° |
| 2026-05-08 11:49 | 40.64066 | -73.78424 | 28 ft | 3 kts | 151° |
| 2026-05-08 11:50 | 40.64062 | -73.78421 | 28 ft | 0 kts | 151° |
| 2026-05-08 11:51 | 40.64044 | -73.78408 | 28 ft | 9 kts | 151° |
| 2026-05-08 11:52 | 40.63974 | -73.78367 | 28 ft | 11 kts | 161° |
| 2026-05-08 11:52 | 40.63903 | -73.78324 | 28 ft | 11 kts | 155° |
| 2026-05-08 11:52 | 40.63828 | -73.78293 | 28 ft | 11 kts | 171° |
| 2026-05-08 11:52 | 40.63749 | -73.78277 | 28 ft | 11 kts | 171° |
| 2026-05-08 11:53 | 40.63672 | -73.78263 | 28 ft | 11 kts | 173° |
| 2026-05-08 11:53 | 40.63593 | -73.78260 | 28 ft | 11 kts | 191° |
| 2026-05-08 11:53 | 40.63517 | -73.78259 | 30 ft | 11 kts | 147° |
| 2026-05-08 11:53 | 40.63470 | -73.78172 | 30 ft | 12 kts | 122° |
| 2026-05-08 11:54 | 40.63428 | -73.78080 | 29 ft | 12 kts | 120° |
| 2026-05-08 11:54 | 40.63385 | -73.77984 | 28 ft | 13 kts | 120° |
| 2026-05-08 11:54 | 40.63339 | -73.77877 | 31 ft | 14 kts | 120° |
| 2026-05-08 11:54 | 40.63291 | -73.77769 | 32 ft | 14 kts | 119° |
| 2026-05-08 11:55 | 40.63246 | -73.77660 | 32 ft | 14 kts | 120° |
| 2026-05-08 11:55 | 40.63196 | -73.77555 | 34 ft | 14 kts | 122° |
| 2026-05-08 11:55 | 40.63146 | -73.77449 | 34 ft | 14 kts | 120° |
| 2026-05-08 11:55 | 40.63096 | -73.77337 | 32 ft | 15 kts | 121° |
| 2026-05-08 11:56 | 40.63043 | -73.77221 | 32 ft | 15 kts | 121° |
| 2026-05-08 11:56 | 40.62988 | -73.77106 | 28 ft | 13 kts | 137° |
| 2026-05-08 11:56 | 40.62923 | -73.77108 | 29 ft | 9 kts | 203° |
| 2026-05-08 11:56 | 40.62901 | -73.77123 | 29 ft | 0 kts | 209° |
| 2026-05-08 11:57 | 40.62882 | -73.77138 | 29 ft | 11 kts | 209° |
| 2026-05-08 11:57 | 40.62829 | -73.77213 | 28 ft | 10 kts | 262° |
| 2026-05-08 11:57 | 40.62845 | -73.77279 | 29 ft | 0 kts | 300° |
| 2026-05-08 12:00 | 40.62864 | -73.77321 | 30 ft | 19 kts | 300° |
| 2026-05-08 12:00 | 40.63043 | -73.77715 | 35 ft | 92 kts | 301° |
| 2026-05-08 12:00 | 40.63518 | -73.78767 | 30 ft | 172 kts | 301° |
| 2026-05-08 12:00 | 40.64199 | -73.80253 | 518 ft | 188 kts | 300° |
| 2026-05-08 12:01 | 40.64861 | -73.81767 | 1395 ft | 196 kts | 298° |
| 2026-05-08 12:01 | 40.65620 | -73.83295 | 2018 ft | 211 kts | 316° |
| 2026-05-08 12:01 | 40.67027 | -73.84074 | 2270 ft | 242 kts | 358° |
| 2026-05-08 12:01 | 40.68706 | -73.83460 | 2789 ft | 260 kts | 34° |
| 2026-05-08 12:02 | 40.70155 | -73.81967 | 3578 ft | 269 kts | 39° |
| 2026-05-08 12:02 | 40.71608 | -73.80375 | 4586 ft | 273 kts | 39° |
| 2026-05-08 12:02 | 40.73086 | -73.78777 | 5598 ft | 277 kts | 39° |
| 2026-05-08 12:02 | 40.74595 | -73.77170 | 6550 ft | 281 kts | 39° |
| 2026-05-08 12:03 | 40.76109 | -73.75502 | 7465 ft | 286 kts | 40° |
| 2026-05-08 12:03 | 40.77657 | -73.73812 | 8365 ft | 291 kts | 39° |
| 2026-05-08 12:03 | 40.79244 | -73.72126 | 9254 ft | 295 kts | 38° |
| 2026-05-08 12:03 | 40.80870 | -73.70443 | 10108 ft | 299 kts | 38° |
| 2026-05-08 12:04 | 40.82552 | -73.68735 | 10726 ft | 314 kts | 37° |
| 2026-05-08 12:04 | 40.84342 | -73.66940 | 10924 ft | 340 kts | 37° |
| 2026-05-08 12:04 | 40.86307 | -73.64988 | 11128 ft | 366 kts | 37° |
| 2026-05-08 12:04 | 40.88409 | -73.62914 | 11444 ft | 385 kts | 37° |
| 2026-05-08 12:05 | 40.90590 | -73.60769 | 12014 ft | 395 kts | 37° |
| 2026-05-08 12:05 | 40.92815 | -73.58585 | 12691 ft | 401 kts | 36° |
| 2026-05-08 12:05 | 40.95074 | -73.56368 | 13419 ft | 405 kts | 36° |
| 2026-05-08 12:05 | 40.97359 | -73.54126 | 14108 ft | 409 kts | 36° |
| 2026-05-08 12:06 | 40.99658 | -73.51868 | 14735 ft | 414 kts | 36° |
| 2026-05-08 12:06 | 41.01959 | -73.49606 | 15319 ft | 418 kts | 37° |
| 2026-05-08 12:06 | 41.04308 | -73.47294 | 15886 ft | 423 kts | 37° |
| 2026-05-08 12:06 | 41.06677 | -73.44961 | 16428 ft | 427 kts | 37° |
| 2026-05-08 12:07 | 41.09072 | -73.42599 | 16941 ft | 430 kts | 37° |
| 2026-05-08 12:07 | 41.11490 | -73.40213 | 17427 ft | 434 kts | 37° |
| 2026-05-08 12:07 | 41.13919 | -73.37814 | 17888 ft | 438 kts | 37° |
| 2026-05-08 12:07 | 41.16375 | -73.35386 | 18325 ft | 441 kts | 37° |
| 2026-05-08 12:08 | 41.18847 | -73.32939 | 18739 ft | 444 kts | 37° |
| 2026-05-08 12:08 | 41.21333 | -73.30476 | 19132 ft | 448 kts | 37° |
| 2026-05-08 12:08 | 41.23809 | -73.28021 | 19501 ft | 451 kts | 37° |
| 2026-05-08 12:08 | 41.26336 | -73.25512 | 19855 ft | 453 kts | 37° |
| 2026-05-08 12:09 | 41.28872 | -73.22992 | 20191 ft | 456 kts | 37° |
| 2026-05-08 12:09 | 41.31422 | -73.20457 | 20511 ft | 459 kts | 37° |
| 2026-05-08 12:09 | 41.33989 | -73.17901 | 20822 ft | 462 kts | 37° |
| 2026-05-08 12:09 | 41.36459 | -73.15150 | 21111 ft | 464 kts | 44° |
| 2026-05-08 12:10 | 41.38658 | -73.11982 | 21405 ft | 467 kts | 50° |
| 2026-05-08 12:10 | 41.40600 | -73.08508 | 21692 ft | 469 kts | 57° |
| 2026-05-08 12:10 | 41.42279 | -73.04777 | 21963 ft | 470 kts | 60° |
| 2026-05-08 12:10 | 41.43901 | -73.01027 | 22207 ft | 473 kts | 60° |
| 2026-05-08 12:11 | 41.45542 | -72.97211 | 22460 ft | 476 kts | 60° |
| 2026-05-08 12:11 | 41.47200 | -72.93375 | 22716 ft | 478 kts | 60° |
| 2026-05-08 12:11 | 41.48874 | -72.89529 | 22967 ft | 479 kts | 60° |
| 2026-05-08 12:11 | 41.50561 | -72.85674 | 23205 ft | 481 kts | 60° |
| 2026-05-08 12:12 | 41.52257 | -72.81810 | 23435 ft | 484 kts | 59° |
| 2026-05-08 12:12 | 41.53961 | -72.77928 | 23656 ft | 486 kts | 59° |
| 2026-05-08 12:12 | 41.55672 | -72.74025 | 23872 ft | 487 kts | 60° |
| 2026-05-08 12:12 | 41.57387 | -72.70107 | 24082 ft | 489 kts | 60° |
| 2026-05-08 12:13 | 41.59083 | -72.66222 | 24283 ft | 491 kts | 60° |
| 2026-05-08 12:13 | 41.60807 | -72.62270 | 24481 ft | 493 kts | 60° |
| 2026-05-08 12:13 | 41.62538 | -72.58297 | 24673 ft | 494 kts | 60° |
| 2026-05-08 12:13 | 41.64272 | -72.54312 | 24860 ft | 496 kts | 60° |
| 2026-05-08 12:14 | 41.66033 | -72.50336 | 25038 ft | 498 kts | 59° |
| 2026-05-08 12:14 | 41.67826 | -72.46361 | 25213 ft | 499 kts | 59° |
| 2026-05-08 12:14 | 41.69633 | -72.42378 | 25382 ft | 501 kts | 59° |
| 2026-05-08 12:14 | 41.71445 | -72.38380 | 25547 ft | 502 kts | 59° |
| 2026-05-08 12:15 | 41.73254 | -72.34374 | 25706 ft | 504 kts | 59° |
| 2026-05-08 12:15 | 41.75045 | -72.30392 | 25859 ft | 505 kts | 59° |
| 2026-05-08 12:15 | 41.76859 | -72.26347 | 26008 ft | 507 kts | 59° |
| 2026-05-08 12:15 | 41.78677 | -72.22282 | 26154 ft | 508 kts | 59° |
| 2026-05-08 12:16 | 41.80493 | -72.18214 | 26294 ft | 509 kts | 59° |
| 2026-05-08 12:16 | 41.82316 | -72.14126 | 26430 ft | 510 kts | 59° |
| 2026-05-08 12:16 | 41.84114 | -72.10089 | 26560 ft | 512 kts | 59° |
| 2026-05-08 12:16 | 41.85942 | -72.05980 | 26688 ft | 513 kts | 59° |
| 2026-05-08 12:17 | 41.87776 | -72.01852 | 26813 ft | 514 kts | 59° |
| 2026-05-08 12:17 | 41.89552 | -71.97847 | 26930 ft | 515 kts | 59° |
| 2026-05-08 12:17 | 41.91386 | -71.93710 | 27047 ft | 516 kts | 59° |
| 2026-05-08 12:17 | 41.93226 | -71.89560 | 27163 ft | 517 kts | 59° |
| 2026-05-08 12:18 | 41.95233 | -71.85531 | 27262 ft | 518 kts | 53° |
| 2026-05-08 12:18 | 41.97494 | -71.81748 | 27367 ft | 519 kts | 49° |
| 2026-05-08 12:18 | 42.00016 | -71.78273 | 27469 ft | 520 kts | 44° |
| 2026-05-08 12:18 | 42.02602 | -71.74942 | 27555 ft | 521 kts | 44° |
| 2026-05-08 12:19 | 42.05231 | -71.71579 | 27642 ft | 522 kts | 43° |
| 2026-05-08 12:19 | 42.07865 | -71.68199 | 27735 ft | 523 kts | 44° |
| 2026-05-08 12:19 | 42.10494 | -71.64799 | 27829 ft | 524 kts | 44° |
| 2026-05-08 12:19 | 42.13112 | -71.61387 | 27917 ft | 524 kts | 44° |
| 2026-05-08 12:20 | 42.15728 | -71.57958 | 27998 ft | 525 kts | 44° |
| 2026-05-08 12:20 | 42.18351 | -71.54508 | 28074 ft | 526 kts | 44° |
| 2026-05-08 12:20 | 42.23593 | -71.47594 | 28183 ft | 528 kts | 44° |
| 2026-05-08 12:21 | 42.28859 | -71.40637 | 28324 ft | 529 kts | 44° |
| 2026-05-08 12:21 | 42.31487 | -71.37160 | 28426 ft | 529 kts | 44° |
| 2026-05-08 12:21 | 42.34116 | -71.33678 | 28530 ft | 528 kts | 44° |
| 2026-05-08 12:22 | 42.39366 | -71.26712 | 28712 ft | 528 kts | 44° |
| 2026-05-08 12:22 | 42.44575 | -71.19783 | 28879 ft | 529 kts | 44° |
| 2026-05-08 12:23 | 42.49820 | -71.12789 | 29049 ft | 529 kts | 44° |
| 2026-05-08 12:23 | 42.55064 | -71.05777 | 29214 ft | 529 kts | 45° |
| 2026-05-08 12:24 | 42.60217 | -70.98871 | 29385 ft | 529 kts | 45° |
| 2026-05-08 12:24 | 42.65461 | -70.91825 | 29549 ft | 529 kts | 45° |
| 2026-05-08 12:25 | 42.70238 | -70.84219 | 29696 ft | 529 kts | 56° |
| 2026-05-08 12:25 | 42.74204 | -70.75846 | 29787 ft | 530 kts | 58° |
| 2026-05-08 12:26 | 42.78135 | -70.67382 | 30128 ft | 526 kts | 58° |
| 2026-05-08 12:26 | 42.80095 | -70.63190 | 30395 ft | 523 kts | 57° |
| 2026-05-08 12:26 | 42.82046 | -70.59037 | 30656 ft | 515 kts | 57° |
| 2026-05-08 12:27 | 42.83976 | -70.54941 | 30912 ft | 512 kts | 57° |
| 2026-05-08 12:27 | 42.85900 | -70.50865 | 31178 ft | 510 kts | 57° |
| 2026-05-08 12:27 | 42.87812 | -70.46810 | 31442 ft | 507 kts | 57° |
| 2026-05-08 12:27 | 42.89713 | -70.42771 | 31598 ft | 507 kts | 57° |
| 2026-05-08 12:28 | 42.93543 | -70.34616 | 31625 ft | 513 kts | 57° |
| 2026-05-08 12:28 | 42.97385 | -70.26409 | 31659 ft | 518 kts | 57° |
| 2026-05-08 12:29 | 43.01275 | -70.18071 | 31688 ft | 523 kts | 57° |
| 2026-05-08 12:29 | 43.05197 | -70.09642 | 31710 ft | 526 kts | 58° |
| 2026-05-08 12:30 | 43.09132 | -70.01162 | 31728 ft | 529 kts | 58° |
| 2026-05-08 12:30 | 43.13020 | -69.92759 | 31749 ft | 531 kts | 58° |
| 2026-05-08 12:31 | 43.16978 | -69.84180 | 31810 ft | 532 kts | 58° |
| 2026-05-08 12:31 | 43.20926 | -69.75598 | 31911 ft | 532 kts | 58° |
| 2026-05-08 12:32 | 43.24202 | -69.68457 | 31959 ft | 533 kts | 58° |
| 2026-05-08 12:32 | 43.28151 | -69.59827 | 31993 ft | 534 kts | 58° |
| 2026-05-08 12:33 | 43.32085 | -69.51205 | 32282 ft | 529 kts | 58° |
| 2026-05-08 12:33 | 43.34034 | -69.46921 | 32498 ft | 526 kts | 58° |
| 2026-05-08 12:33 | 43.35973 | -69.42656 | 32713 ft | 523 kts | 58° |
| 2026-05-08 12:34 | 43.37875 | -69.38465 | 32926 ft | 521 kts | 58° |
| 2026-05-08 12:34 | 43.39786 | -69.34250 | 33142 ft | 518 kts | 58° |
| 2026-05-08 12:34 | 43.41688 | -69.30048 | 33358 ft | 516 kts | 58° |
| 2026-05-08 12:34 | 43.43584 | -69.25851 | 33574 ft | 514 kts | 58° |
| 2026-05-08 12:35 | 43.45465 | -69.21683 | 33789 ft | 512 kts | 58° |
| 2026-05-08 12:35 | 43.47342 | -69.17519 | 34005 ft | 510 kts | 58° |
| 2026-05-08 12:35 | 43.49209 | -69.13369 | 34224 ft | 509 kts | 58° |
| 2026-05-08 12:35 | 43.51067 | -69.09233 | 34442 ft | 508 kts | 58° |
| 2026-05-08 12:36 | 43.52923 | -69.05097 | 34660 ft | 507 kts | 58° |
| 2026-05-08 12:36 | 43.54773 | -69.00970 | 34871 ft | 506 kts | 58° |
| 2026-05-08 12:36 | 43.58437 | -68.92775 | 34987 ft | 511 kts | 58° |
| 2026-05-08 12:37 | 43.62186 | -68.84368 | 35009 ft | 517 kts | 58° |
| 2026-05-08 12:37 | 43.65937 | -68.75930 | 34994 ft | 513 kts | 58° |
| 2026-05-08 12:38 | 43.69627 | -68.67606 | 34980 ft | 506 kts | 58° |
| 2026-05-08 12:38 | 43.73286 | -68.59330 | 34994 ft | 503 kts | 58° |
| 2026-05-08 12:39 | 43.74696 | -68.56133 | 34994 ft | 501 kts | 59° |
| 2026-05-08 12:39 | 43.77453 | -68.49872 | 34995 ft | 499 kts | 59° |
| 2026-05-08 12:40 | 43.81030 | -68.41729 | 34996 ft | 496 kts | 59° |
| 2026-05-08 12:40 | 43.84624 | -68.33527 | 34997 ft | 494 kts | 59° |
| 2026-05-08 12:41 | 43.88128 | -68.25503 | 34992 ft | 483 kts | 59° |
| 2026-05-08 12:41 | 43.91575 | -68.17592 | 35003 ft | 471 kts | 59° |
| 2026-05-08 12:42 | 43.94925 | -68.09882 | 35013 ft | 467 kts | 59° |
| 2026-05-08 12:42 | 43.98321 | -68.02045 | 35015 ft | 478 kts | 59° |
| 2026-05-08 12:43 | 44.01729 | -67.94158 | 34974 ft | 489 kts | 57° |
| 2026-05-08 12:43 | 44.05278 | -67.85931 | 35048 ft | 500 kts | 56° |
| 2026-05-08 12:44 | 44.08917 | -67.77471 | 35017 ft | 516 kts | 57° |
| 2026-05-08 12:44 | 44.12644 | -67.68768 | 35019 ft | 530 kts | 57° |
| 2026-05-08 12:45 | 44.16419 | -67.59922 | 35011 ft | 535 kts | 57° |
| 2026-05-08 12:45 | 44.20218 | -67.50995 | 34998 ft | 535 kts | 57° |
| 2026-05-08 12:46 | 44.24007 | -67.42066 | 35002 ft | 534 kts | 58° |
| 2026-05-08 12:46 | 44.27766 | -67.33178 | 34983 ft | 530 kts | 58° |
| 2026-05-08 12:47 | 44.31520 | -67.24281 | 35005 ft | 533 kts | 58° |
| 2026-05-08 12:47 | 44.35288 | -67.15320 | 35002 ft | 536 kts | 58° |
| 2026-05-08 12:48 | 44.39036 | -67.06378 | 35004 ft | 536 kts | 58° |
| 2026-05-08 12:48 | 44.42929 | -66.97654 | 35002 ft | 534 kts | 51° |
| 2026-05-08 12:49 | 44.47536 | -66.89512 | 35009 ft | 532 kts | 49° |
| 2026-05-08 12:49 | 44.50656 | -66.84141 | 34990 ft | 531 kts | 49° |
| 2026-05-08 12:50 | 44.52561 | -66.80855 | 35927 ft | 535 kts | 51° |
| 2026-05-08 12:50 | 44.54926 | -66.76746 | 35664 ft | 547 kts | 52° |
| 2026-05-08 12:50 | 44.57297 | -66.72589 | 35450 ft | 556 kts | 52° |
| 2026-05-08 12:51 | 44.59706 | -66.68340 | 35219 ft | 556 kts | 53° |
| 2026-05-08 12:51 | 44.64486 | -66.59860 | 34902 ft | 550 kts | 53° |
| 2026-05-08 12:52 | 44.69195 | -66.51479 | 34781 ft | 543 kts | 53° |
| 2026-05-08 12:52 | 44.76297 | -66.38797 | 34765 ft | 555 kts | 53° |
| 2026-05-08 12:53 | 44.81045 | -66.30296 | 34756 ft | 555 kts | 53° |
| 2026-05-08 12:53 | 44.85814 | -66.21734 | 34756 ft | 554 kts | 54° |
| 2026-05-08 12:54 | 44.90560 | -66.13187 | 34764 ft | 553 kts | 54° |
| 2026-05-08 12:54 | 44.95292 | -66.04634 | 34768 ft | 552 kts | 54° |
| 2026-05-08 12:55 | 44.99925 | -65.96236 | 34998 ft | 555 kts | 54° |
| 2026-05-08 12:55 | 45.02281 | -65.91959 | 35381 ft | 552 kts | 54° |
| 2026-05-08 12:55 | 45.04632 | -65.87684 | 35792 ft | 549 kts | 54° |
| 2026-05-08 12:56 | 45.06973 | -65.83420 | 36187 ft | 546 kts | 54° |
| 2026-05-08 12:56 | 45.09296 | -65.79182 | 36531 ft | 545 kts | 54° |
| 2026-05-08 12:56 | 45.11617 | -65.74941 | 36698 ft | 546 kts | 53° |
| 2026-05-08 12:56 | 45.13952 | -65.70667 | 36737 ft | 549 kts | 54° |
| 2026-05-08 12:57 | 45.18617 | -65.62111 | 36740 ft | 546 kts | 54° |
| 2026-05-08 12:57 | 45.23212 | -65.53659 | 36730 ft | 542 kts | 54° |
| 2026-05-08 12:58 | 45.27810 | -65.45175 | 36731 ft | 541 kts | 54° |
| 2026-05-08 12:58 | 45.32391 | -65.36696 | 36737 ft | 541 kts | 54° |
| 2026-05-08 12:59 | 45.36972 | -65.28192 | 36734 ft | 541 kts | 54° |
| 2026-05-08 12:59 | 45.41555 | -65.19660 | 36679 ft | 543 kts | 54° |
| 2026-05-08 13:00 | 45.46116 | -65.11143 | 36716 ft | 545 kts | 55° |
| 2026-05-08 13:00 | 45.50712 | -65.02535 | 36725 ft | 547 kts | 55° |
| 2026-05-08 13:01 | 45.55261 | -64.93988 | 36729 ft | 549 kts | 55° |
| 2026-05-08 13:01 | 45.59884 | -64.85278 | 36719 ft | 550 kts | 56° |
| 2026-05-08 13:02 | 45.64513 | -64.76529 | 36716 ft | 551 kts | 56° |
| 2026-05-08 13:02 | 45.69127 | -64.67780 | 36708 ft | 550 kts | 56° |
| 2026-05-08 13:03 | 45.73704 | -64.59075 | 36709 ft | 549 kts | 56° |
| 2026-05-08 13:03 | 45.78285 | -64.50336 | 36701 ft | 548 kts | 56° |
| 2026-05-08 13:04 | 45.82861 | -64.41579 | 36695 ft | 547 kts | 56° |
| 2026-05-08 13:04 | 45.87418 | -64.32833 | 36648 ft | 546 kts | 57° |
| 2026-05-08 13:05 | 45.91961 | -64.24084 | 36690 ft | 545 kts | 57° |
| 2026-05-08 13:05 | 45.96469 | -64.15375 | 36699 ft | 546 kts | 57° |
| 2026-05-08 13:06 | 46.00995 | -64.06604 | 36694 ft | 547 kts | 57° |
| 2026-05-08 13:06 | 46.05461 | -63.97923 | 36690 ft | 548 kts | 57° |
| 2026-05-08 13:07 | 46.09991 | -63.89090 | 36695 ft | 549 kts | 57° |
| 2026-05-08 13:07 | 46.14522 | -63.80228 | 36692 ft | 549 kts | 57° |
| 2026-05-08 13:08 | 46.19051 | -63.71342 | 36703 ft | 549 kts | 57° |
| 2026-05-08 13:08 | 46.23541 | -63.62506 | 36697 ft | 549 kts | 57° |
| 2026-05-08 13:09 | 46.28055 | -63.53593 | 36701 ft | 549 kts | 58° |
| 2026-05-08 13:09 | 46.32556 | -63.44677 | 36642 ft | 548 kts | 58° |
| 2026-05-08 13:10 | 46.37049 | -63.35749 | 36697 ft | 547 kts | 58° |
| 2026-05-08 13:10 | 46.41502 | -63.26871 | 36694 ft | 547 kts | 58° |
| 2026-05-08 13:11 | 46.45970 | -63.17936 | 36696 ft | 547 kts | 58° |
| 2026-05-08 13:11 | 46.50437 | -63.08975 | 36692 ft | 547 kts | 59° |
| 2026-05-08 13:12 | 46.54894 | -63.00003 | 36703 ft | 547 kts | 59° |
| 2026-05-08 13:12 | 46.59284 | -62.91139 | 36701 ft | 547 kts | 59° |
| 2026-05-08 13:13 | 46.63702 | -62.82190 | 36702 ft | 548 kts | 59° |
| 2026-05-08 13:13 | 46.68146 | -62.73161 | 36702 ft | 548 kts | 59° |
| 2026-05-08 13:14 | 46.72574 | -62.64131 | 36715 ft | 548 kts | 59° |
| 2026-05-08 13:14 | 46.77004 | -62.55070 | 36700 ft | 548 kts | 59° |
| 2026-05-08 13:15 | 46.81427 | -62.45994 | 36720 ft | 548 kts | 60° |
| 2026-05-08 13:15 | 46.85848 | -62.36894 | 36730 ft | 550 kts | 60° |
| 2026-05-08 13:16 | 46.90281 | -62.27735 | 36737 ft | 552 kts | 60° |
| 2026-05-08 13:16 | 46.93972 | -62.20087 | 36721 ft | 553 kts | 60° |
| 2026-05-08 13:17 | 46.99131 | -62.09362 | 36742 ft | 554 kts | 60° |
| 2026-05-08 13:17 | 47.03562 | -62.00119 | 36744 ft | 555 kts | 60° |
| 2026-05-08 13:18 | 47.07183 | -61.92544 | 36730 ft | 555 kts | 61° |
| 2026-05-08 13:18 | 47.11609 | -61.83255 | 36725 ft | 555 kts | 61° |
| 2026-05-08 13:19 | 47.16030 | -61.73945 | 36712 ft | 555 kts | 61° |
| 2026-05-08 13:19 | 47.20432 | -61.64643 | 36703 ft | 554 kts | 61° |
| 2026-05-08 13:20 | 47.24831 | -61.55317 | 36653 ft | 553 kts | 61° |
| 2026-05-08 13:20 | 47.29207 | -61.46005 | 36705 ft | 553 kts | 62° |
| 2026-05-08 13:21 | 47.33548 | -61.36738 | 36715 ft | 553 kts | 62° |
| 2026-05-08 13:21 | 47.37918 | -61.27376 | 36723 ft | 554 kts | 62° |
| 2026-05-08 13:22 | 47.42287 | -61.17986 | 36741 ft | 555 kts | 62° |
| 2026-05-08 13:22 | 47.46656 | -61.08564 | 36741 ft | 555 kts | 62° |
| 2026-05-08 13:23 | 47.50960 | -60.99252 | 36739 ft | 556 kts | 62° |
| 2026-05-08 13:23 | 47.55319 | -60.89787 | 36740 ft | 556 kts | 62° |
| 2026-05-08 13:24 | 47.59646 | -60.80360 | 36739 ft | 556 kts | 62° |
| 2026-05-08 13:24 | 47.63982 | -60.70881 | 36732 ft | 555 kts | 62° |
| 2026-05-08 13:25 | 47.68312 | -60.61382 | 36656 ft | 555 kts | 62° |
| 2026-05-08 13:25 | 47.72622 | -60.51895 | 36737 ft | 553 kts | 62° |
| 2026-05-08 13:26 | 47.76888 | -60.42471 | 36724 ft | 553 kts | 63° |
| 2026-05-08 13:26 | 47.81175 | -60.32964 | 36725 ft | 553 kts | 63° |
| 2026-05-08 13:27 | 47.85460 | -60.23431 | 36732 ft | 553 kts | 63° |
| 2026-05-08 13:27 | 47.89735 | -60.13887 | 36730 ft | 553 kts | 63° |
| 2026-05-08 13:28 | 47.93977 | -60.04385 | 36715 ft | 553 kts | 63° |
| 2026-05-08 13:28 | 47.98177 | -59.94944 | 36723 ft | 553 kts | 63° |
| 2026-05-08 13:29 | 48.02422 | -59.85367 | 36728 ft | 553 kts | 63° |
| 2026-05-08 13:29 | 48.06666 | -59.75758 | 36724 ft | 554 kts | 63° |
| 2026-05-08 13:30 | 48.10880 | -59.66186 | 36723 ft | 554 kts | 63° |
| 2026-05-08 13:30 | 48.15111 | -59.56540 | 36661 ft | 554 kts | 64° |
| 2026-05-08 13:31 | 48.19330 | -59.46888 | 36719 ft | 554 kts | 64° |
| 2026-05-08 13:31 | 48.23549 | -59.37198 | 36723 ft | 555 kts | 64° |
| 2026-05-08 13:32 | 48.27765 | -59.27481 | 36720 ft | 556 kts | 64° |
| 2026-05-08 13:32 | 48.31985 | -59.17720 | 36720 ft | 557 kts | 64° |
| 2026-05-08 13:33 | 48.36194 | -59.07952 | 36716 ft | 557 kts | 64° |
| 2026-05-08 13:33 | 48.40342 | -58.98291 | 36720 ft | 557 kts | 64° |
| 2026-05-08 13:34 | 48.44540 | -58.88477 | 36706 ft | 557 kts | 64° |
| 2026-05-08 13:34 | 48.48697 | -58.78725 | 36707 ft | 556 kts | 64° |
| 2026-05-08 13:35 | 48.52867 | -58.68903 | 36708 ft | 555 kts | 64° |
| 2026-05-08 13:35 | 48.57025 | -58.59074 | 36702 ft | 555 kts | 64° |
| 2026-05-08 13:36 | 48.61167 | -58.49248 | 36712 ft | 553 kts | 64° |
| 2026-05-08 13:36 | 48.65296 | -58.39418 | 36697 ft | 553 kts | 64° |
| 2026-05-08 13:37 | 48.69409 | -58.29590 | 36692 ft | 552 kts | 64° |
| 2026-05-08 13:37 | 48.73503 | -58.19769 | 36688 ft | 551 kts | 64° |
| 2026-05-08 13:38 | 48.77591 | -58.09929 | 36686 ft | 551 kts | 64° |
| 2026-05-08 13:38 | 48.81641 | -58.00142 | 36695 ft | 551 kts | 64° |
| 2026-05-08 13:39 | 48.85657 | -57.90402 | 36685 ft | 551 kts | 64° |
| 2026-05-08 13:39 | 48.89719 | -57.80514 | 36687 ft | 551 kts | 64° |
| 2026-05-08 13:40 | 48.93768 | -57.70626 | 36692 ft | 550 kts | 64° |
| 2026-05-08 13:40 | 48.97803 | -57.60730 | 36692 ft | 551 kts | 64° |
| 2026-05-08 13:41 | 49.01831 | -57.50816 | 36689 ft | 550 kts | 64° |
| 2026-05-08 13:41 | 49.05845 | -57.40902 | 36678 ft | 548 kts | 64° |
| 2026-05-08 13:42 | 49.09810 | -57.31071 | 36707 ft | 547 kts | 64° |
| 2026-05-08 13:42 | 49.13794 | -57.21155 | 36704 ft | 546 kts | 64° |
| 2026-05-08 13:43 | 49.17765 | -57.11236 | 36665 ft | 546 kts | 64° |
| 2026-05-08 13:43 | 49.21695 | -57.01378 | 36668 ft | 545 kts | 64° |
| 2026-05-08 13:44 | 49.25575 | -56.91614 | 36673 ft | 546 kts | 65° |
| 2026-05-08 13:44 | 49.29513 | -56.81663 | 36662 ft | 546 kts | 65° |
| 2026-05-08 13:45 | 49.33452 | -56.71671 | 36671 ft | 548 kts | 65° |
| 2026-05-08 13:45 | 49.37377 | -56.61680 | 36661 ft | 550 kts | 65° |
| 2026-05-08 13:46 | 49.41319 | -56.51610 | 36665 ft | 550 kts | 65° |
| 2026-05-08 13:46 | 49.45259 | -56.41506 | 36657 ft | 551 kts | 65° |
| 2026-05-08 13:47 | 49.49191 | -56.31382 | 36668 ft | 552 kts | 65° |
| 2026-05-08 13:47 | 49.53124 | -56.21215 | 36664 ft | 553 kts | 65° |
| 2026-05-08 13:48 | 49.57062 | -56.10997 | 36662 ft | 554 kts | 65° |
| 2026-05-08 13:48 | 49.60962 | -56.00835 | 36657 ft | 555 kts | 65° |
| 2026-05-08 13:49 | 49.64823 | -55.90741 | 36667 ft | 555 kts | 65° |
| 2026-05-08 13:49 | 49.68744 | -55.80447 | 36664 ft | 556 kts | 65° |
| 2026-05-08 13:50 | 49.72661 | -55.70123 | 36661 ft | 556 kts | 65° |
| 2026-05-08 13:50 | 49.76572 | -55.59777 | 36660 ft | 557 kts | 65° |
| 2026-05-08 13:51 | 49.80473 | -55.49414 | 36675 ft | 557 kts | 65° |
| 2026-05-08 13:51 | 49.84360 | -55.39045 | 36668 ft | 557 kts | 65° |
| 2026-05-08 13:52 | 49.88238 | -55.28660 | 36659 ft | 557 kts | 65° |
| 2026-05-08 13:52 | 49.92079 | -55.18335 | 36650 ft | 555 kts | 65° |
| 2026-05-08 13:53 | 49.95933 | -55.07934 | 36674 ft | 555 kts | 65° |
| 2026-05-08 13:53 | 49.99716 | -54.97678 | 36685 ft | 555 kts | 65° |
| 2026-05-08 13:54 | 50.03540 | -54.87273 | 36674 ft | 555 kts | 65° |
| 2026-05-08 13:54 | 50.07337 | -54.76898 | 36677 ft | 555 kts | 66° |
| 2026-05-08 13:55 | 50.11149 | -54.66443 | 36685 ft | 555 kts | 66° |
| 2026-05-08 13:56 | 50.16848 | -54.50732 | 36683 ft | 553 kts | 66° |
| 2026-05-08 13:56 | 50.20627 | -54.40260 | 36663 ft | 553 kts | 66° |
| 2026-05-08 13:57 | 50.24388 | -54.29796 | 36686 ft | 552 kts | 66° |
| 2026-05-08 13:57 | 50.28137 | -54.19321 | 36687 ft | 551 kts | 66° |
| 2026-05-08 13:58 | 50.31869 | -54.08852 | 36685 ft | 551 kts | 66° |
| 2026-05-08 13:58 | 50.35525 | -53.98559 | 36682 ft | 548 kts | 66° |
| 2026-05-08 13:59 | 50.39214 | -53.88127 | 36680 ft | 546 kts | 66° |
| 2026-05-08 13:59 | 50.42861 | -53.77768 | 36671 ft | 545 kts | 66° |
| 2026-05-08 14:00 | 50.46536 | -53.67290 | 36683 ft | 543 kts | 66° |
| 2026-05-08 14:00 | 50.49556 | -53.58648 | 36689 ft | 543 kts | 66° |
| 2026-05-08 14:01 | 50.53768 | -53.46540 | 36697 ft | 542 kts | 66° |
| 2026-05-08 14:01 | 50.56768 | -53.37885 | 36693 ft | 542 kts | 66° |
| 2026-05-08 14:02 | 50.60975 | -53.25695 | 36701 ft | 542 kts | 67° |
| 2026-05-08 14:02 | 50.63961 | -53.17008 | 36701 ft | 542 kts | 67° |
| 2026-05-08 14:03 | 50.67540 | -53.06556 | 36701 ft | 542 kts | 67° |
| 2026-05-08 14:03 | 50.71053 | -52.96252 | 36687 ft | 542 kts | 67° |
| 2026-05-08 14:04 | 50.74613 | -52.85769 | 36648 ft | 542 kts | 66° |
| 2026-05-08 14:04 | 50.78161 | -52.75279 | 36705 ft | 540 kts | 66° |
| 2026-05-08 14:05 | 50.81692 | -52.64797 | 36715 ft | 540 kts | 66° |
| 2026-05-08 14:05 | 50.84986 | -52.54146 | 36706 ft | 536 kts | 71° |
| 2026-05-08 14:06 | 50.87902 | -52.43273 | 36716 ft | 536 kts | 72° |
| 2026-05-08 14:06 | 50.90757 | -52.32436 | 36720 ft | 536 kts | 72° |
| 2026-05-08 14:07 | 50.93650 | -52.21537 | 36719 ft | 536 kts | 72° |
| 2026-05-08 14:07 | 50.96555 | -52.10633 | 36718 ft | 537 kts | 72° |
| 2026-05-08 14:08 | 50.99431 | -51.99800 | 36727 ft | 537 kts | 72° |
| 2026-05-08 14:08 | 51.02302 | -51.88928 | 36736 ft | 537 kts | 72° |
| 2026-05-08 14:09 | 51.05179 | -51.77971 | 36699 ft | 537 kts | 72° |
| 2026-05-08 14:09 | 51.08029 | -51.67066 | 36740 ft | 537 kts | 71° |
| 2026-05-08 14:10 | 51.10886 | -51.56077 | 36751 ft | 538 kts | 71° |
| 2026-05-08 14:10 | 51.13738 | -51.45058 | 36756 ft | 538 kts | 71° |
| 2026-05-08 14:11 | 51.16588 | -51.33996 | 36758 ft | 539 kts | 71° |
| 2026-05-08 14:11 | 51.19413 | -51.22972 | 36756 ft | 539 kts | 71° |
| 2026-05-08 14:12 | 51.22242 | -51.11880 | 36756 ft | 539 kts | 71° |
| 2026-05-08 14:12 | 51.25054 | -51.00800 | 36775 ft | 538 kts | 71° |
| 2026-05-08 14:13 | 51.27812 | -50.89881 | 36781 ft | 538 kts | 71° |
| 2026-05-08 14:13 | 51.30581 | -50.78864 | 36776 ft | 538 kts | 72° |
| 2026-05-08 14:14 | 51.33356 | -50.67762 | 36780 ft | 535 kts | 71° |
| 2026-05-08 14:14 | 51.36105 | -50.56715 | 36789 ft | 533 kts | 71° |
| 2026-05-08 14:15 | 51.38835 | -50.45690 | 36789 ft | 532 kts | 71° |
| 2026-05-08 14:15 | 51.41548 | -50.34674 | 36793 ft | 531 kts | 71° |
| 2026-05-08 14:16 | 51.44246 | -50.23665 | 36806 ft | 530 kts | 71° |
| 2026-05-08 14:16 | 51.46916 | -50.12719 | 36813 ft | 530 kts | 71° |
| 2026-05-08 14:17 | 51.49593 | -50.01691 | 36817 ft | 531 kts | 71° |
| 2026-05-08 14:17 | 51.52278 | -49.90811 | 36818 ft | 532 kts | 71° |
| 2026-05-08 14:18 | 51.55065 | -49.79791 | 36831 ft | 532 kts | 70° |
| 2026-05-08 14:18 | 51.57848 | -49.68750 | 36838 ft | 533 kts | 71° |
| 2026-05-08 14:19 | 51.60606 | -49.57693 | 36831 ft | 532 kts | 70° |
| 2026-05-08 14:19 | 51.63330 | -49.46691 | 36838 ft | 532 kts | 71° |
| 2026-05-08 14:20 | 51.66059 | -49.35606 | 36847 ft | 532 kts | 70° |
| 2026-05-08 14:20 | 51.68778 | -49.24507 | 36844 ft | 532 kts | 70° |
| 2026-05-08 14:21 | 51.71487 | -49.13398 | 36864 ft | 532 kts | 70° |
| 2026-05-08 14:21 | 51.74184 | -49.02286 | 36859 ft | 532 kts | 70° |
| 2026-05-08 14:22 | 51.76834 | -48.91310 | 36879 ft | 532 kts | 70° |
| 2026-05-08 14:22 | 51.79490 | -48.80249 | 36883 ft | 532 kts | 70° |
| 2026-05-08 14:23 | 51.82157 | -48.69092 | 36878 ft | 531 kts | 70° |
| 2026-05-08 14:23 | 51.84807 | -48.57944 | 36881 ft | 531 kts | 70° |
| 2026-05-08 14:24 | 51.87445 | -48.46792 | 36900 ft | 529 kts | 70° |
| 2026-05-08 14:24 | 51.90056 | -48.35693 | 36891 ft | 527 kts | 70° |
| 2026-05-08 14:25 | 51.92655 | -48.24591 | 36900 ft | 526 kts | 70° |
| 2026-05-08 14:25 | 51.95220 | -48.13576 | 36912 ft | 525 kts | 70° |
| 2026-05-08 14:26 | 51.97786 | -48.02501 | 36931 ft | 525 kts | 70° |
| 2026-05-08 14:26 | 52.00301 | -47.91586 | 36931 ft | 525 kts | 70° |
| 2026-05-08 14:27 | 52.02852 | -47.80457 | 36934 ft | 526 kts | 70° |
| 2026-05-08 14:27 | 52.05398 | -47.69298 | 36937 ft | 527 kts | 70° |
| 2026-05-08 14:28 | 52.07941 | -47.58093 | 36953 ft | 528 kts | 70° |
| 2026-05-08 14:28 | 52.10473 | -47.46871 | 36955 ft | 529 kts | 70° |
| 2026-05-08 14:29 | 52.12998 | -47.35622 | 36943 ft | 529 kts | 69° |
| 2026-05-08 14:29 | 52.15499 | -47.24422 | 36968 ft | 529 kts | 69° |
| 2026-05-08 14:30 | 52.18003 | -47.13146 | 36977 ft | 528 kts | 69° |
| 2026-05-08 14:30 | 52.20489 | -47.01891 | 36992 ft | 527 kts | 70° |
| 2026-05-08 14:31 | 52.22926 | -46.90795 | 36987 ft | 526 kts | 69° |
| 2026-05-08 14:31 | 52.25385 | -46.79545 | 36998 ft | 525 kts | 69° |
| 2026-05-08 14:32 | 52.29043 | -46.62685 | 37020 ft | 525 kts | 69° |
| 2026-05-08 14:32 | 52.31449 | -46.51521 | 37018 ft | 524 kts | 69° |
| 2026-05-08 14:33 | 52.33861 | -46.40268 | 37035 ft | 524 kts | 69° |
| 2026-05-08 14:33 | 52.36265 | -46.28990 | 37029 ft | 524 kts | 69° |
| 2026-05-08 14:34 | 52.38656 | -46.17709 | 37037 ft | 523 kts | 69° |
| 2026-05-08 14:34 | 52.41016 | -46.06511 | 37049 ft | 522 kts | 69° |
| 2026-05-08 14:35 | 52.43337 | -45.95443 | 37063 ft | 520 kts | 69° |
| 2026-05-08 14:35 | 52.45675 | -45.84230 | 37065 ft | 519 kts | 69° |
| 2026-05-08 14:36 | 52.47998 | -45.73028 | 37063 ft | 518 kts | 69° |
| 2026-05-08 14:36 | 52.50305 | -45.61835 | 37078 ft | 517 kts | 69° |
| 2026-05-08 14:37 | 52.52588 | -45.50697 | 37069 ft | 518 kts | 69° |
| 2026-05-08 14:37 | 52.54876 | -45.39472 | 37085 ft | 517 kts | 69° |
| 2026-05-08 14:38 | 52.57149 | -45.28260 | 37091 ft | 517 kts | 69° |
| 2026-05-08 14:38 | 52.59415 | -45.17019 | 37105 ft | 517 kts | 69° |
| 2026-05-08 14:39 | 52.61670 | -45.05764 | 37111 ft | 517 kts | 69° |
| 2026-05-08 14:39 | 52.63869 | -44.94728 | 37112 ft | 517 kts | 69° |
| 2026-05-08 14:40 | 52.66103 | -44.83449 | 37121 ft | 518 kts | 69° |
| 2026-05-08 14:40 | 52.68329 | -44.72144 | 37128 ft | 518 kts | 69° |
| 2026-05-08 14:41 | 52.70544 | -44.60831 | 37131 ft | 518 kts | 69° |
| 2026-05-08 14:41 | 52.72747 | -44.49512 | 37141 ft | 519 kts | 69° |
| 2026-05-08 14:42 | 52.74940 | -44.38175 | 37141 ft | 518 kts | 69° |
| 2026-05-08 14:42 | 52.77123 | -44.26828 | 37155 ft | 517 kts | 69° |
| 2026-05-08 14:43 | 52.79287 | -44.15511 | 37154 ft | 517 kts | 69° |
| 2026-05-08 14:43 | 52.81425 | -44.04263 | 37163 ft | 516 kts | 69° |
| 2026-05-08 14:44 | 52.83533 | -43.93106 | 37175 ft | 515 kts | 69° |
| 2026-05-08 14:44 | 52.85670 | -43.81724 | 37170 ft | 514 kts | 69° |
| 2026-05-08 14:45 | 52.87763 | -43.70504 | 37177 ft | 511 kts | 69° |
| 2026-05-08 14:45 | 52.89849 | -43.59263 | 37182 ft | 509 kts | 69° |
| 2026-05-08 14:46 | 52.91916 | -43.48056 | 37185 ft | 507 kts | 69° |
| 2026-05-08 14:46 | 52.93965 | -43.36878 | 37197 ft | 505 kts | 69° |
| 2026-05-08 14:47 | 52.95993 | -43.25754 | 37210 ft | 503 kts | 69° |
| 2026-05-08 14:47 | 52.97668 | -43.16511 | 37211 ft | 502 kts | 69° |
| 2026-05-08 14:48 | 52.99991 | -43.03612 | 37220 ft | 501 kts | 69° |
| 2026-05-08 14:48 | 53.01617 | -42.94532 | 37240 ft | 502 kts | 69° |
| 2026-05-08 14:49 | 53.03596 | -42.83414 | 37232 ft | 502 kts | 69° |
| 2026-05-08 14:49 | 53.05565 | -42.72287 | 37231 ft | 502 kts | 69° |
| 2026-05-08 14:50 | 53.07524 | -42.61147 | 37245 ft | 502 kts | 69° |
| 2026-05-08 14:50 | 53.09470 | -42.50004 | 37249 ft | 500 kts | 69° |
| 2026-05-08 14:51 | 53.11403 | -42.38875 | 37266 ft | 499 kts | 69° |
| 2026-05-08 14:51 | 53.13305 | -42.27850 | 37252 ft | 497 kts | 69° |
| 2026-05-08 14:52 | 53.16139 | -42.11290 | 37260 ft | 494 kts | 69° |
| 2026-05-08 14:53 | 53.18015 | -42.00248 | 37272 ft | 494 kts | 69° |
| 2026-05-08 14:53 | 53.19850 | -41.89382 | 37289 ft | 493 kts | 69° |
| 2026-05-08 14:54 | 53.21699 | -41.78361 | 37284 ft | 493 kts | 69° |
| 2026-05-08 14:54 | 53.23540 | -41.67321 | 37281 ft | 492 kts | 69° |
| 2026-05-08 14:55 | 53.25362 | -41.56315 | 37289 ft | 492 kts | 69° |
| 2026-05-08 14:55 | 53.27169 | -41.45339 | 37292 ft | 492 kts | 69° |
| 2026-05-08 14:56 | 53.28974 | -41.34298 | 37305 ft | 491 kts | 69° |
| 2026-05-08 14:56 | 53.30763 | -41.23278 | 37303 ft | 489 kts | 69° |
| 2026-05-08 14:57 | 53.32530 | -41.12325 | 37296 ft | 485 kts | 69° |
| 2026-05-08 14:57 | 53.34264 | -41.01510 | 37302 ft | 483 kts | 69° |
| 2026-05-08 14:58 | 53.35967 | -40.90822 | 37309 ft | 481 kts | 69° |
| 2026-05-08 14:58 | 53.37682 | -40.79994 | 37323 ft | 481 kts | 68° |
| 2026-05-08 14:59 | 53.39390 | -40.69142 | 37323 ft | 482 kts | 69° |
| 2026-05-08 14:59 | 53.41942 | -40.52786 | 37333 ft | 484 kts | 69° |
| 2026-05-08 15:00 | 53.43635 | -40.41833 | 37335 ft | 485 kts | 69° |
| 2026-05-08 15:00 | 53.45321 | -40.30860 | 37356 ft | 486 kts | 68° |
| 2026-05-08 15:01 | 53.46991 | -40.19918 | 37346 ft | 487 kts | 69° |
| 2026-05-08 15:01 | 53.48661 | -40.08899 | 37352 ft | 487 kts | 69° |
| 2026-05-08 15:02 | 53.50295 | -39.98032 | 37368 ft | 486 kts | 69° |
| 2026-05-08 15:02 | 53.51892 | -39.87017 | 37352 ft | 484 kts | 69° |
| 2026-05-08 15:03 | 53.53447 | -39.76061 | 37361 ft | 482 kts | 69° |
| 2026-05-08 15:03 | 53.54995 | -39.65108 | 37368 ft | 480 kts | 69° |
| 2026-05-08 15:04 | 53.56536 | -39.54171 | 37364 ft | 480 kts | 69° |
| 2026-05-08 15:04 | 53.58067 | -39.43242 | 37374 ft | 480 kts | 69° |
| 2026-05-08 15:05 | 53.59581 | -39.32363 | 37370 ft | 480 kts | 69° |
| 2026-05-08 15:05 | 53.61096 | -39.21391 | 37386 ft | 482 kts | 69° |
| 2026-05-08 15:06 | 53.62608 | -39.10358 | 37381 ft | 483 kts | 69° |
| 2026-05-08 15:06 | 53.64091 | -38.99455 | 37386 ft | 485 kts | 69° |
| 2026-05-08 15:07 | 53.65579 | -38.88423 | 37389 ft | 486 kts | 70° |
| 2026-05-08 15:07 | 53.67068 | -38.77298 | 37390 ft | 486 kts | 70° |
| 2026-05-08 15:08 | 53.68308 | -38.67968 | 37408 ft | 486 kts | 69° |
| 2026-05-08 15:08 | 53.70014 | -38.55035 | 37400 ft | 485 kts | 69° |
| 2026-05-08 15:09 | 53.71464 | -38.43953 | 37398 ft | 483 kts | 69° |
| 2026-05-08 15:09 | 53.72900 | -38.32891 | 37408 ft | 481 kts | 69° |
| 2026-05-08 15:10 | 53.74324 | -38.21838 | 37412 ft | 480 kts | 69° |
| 2026-05-08 15:10 | 53.75734 | -38.10815 | 37424 ft | 480 kts | 69° |
| 2026-05-08 15:11 | 53.77126 | -37.99848 | 37420 ft | 480 kts | 69° |
| 2026-05-08 15:11 | 53.78498 | -37.88950 | 37425 ft | 479 kts | 69° |
| 2026-05-08 15:12 | 53.79878 | -37.77897 | 37421 ft | 479 kts | 69° |
| 2026-05-08 15:12 | 53.81246 | -37.66855 | 37436 ft | 480 kts | 69° |
| 2026-05-08 15:13 | 53.82607 | -37.55779 | 37429 ft | 480 kts | 69° |
| 2026-05-08 15:13 | 53.83955 | -37.44719 | 37456 ft | 479 kts | 69° |
| 2026-05-08 15:14 | 53.85289 | -37.33672 | 37437 ft | 478 kts | 69° |
| 2026-05-08 15:14 | 53.86611 | -37.22642 | 37449 ft | 477 kts | 69° |
| 2026-05-08 15:15 | 53.87913 | -37.11692 | 37450 ft | 475 kts | 69° |
| 2026-05-08 15:15 | 53.89209 | -37.00699 | 37456 ft | 476 kts | 69° |
| 2026-05-08 15:16 | 53.90478 | -36.89855 | 37457 ft | 476 kts | 69° |
| 2026-05-08 15:16 | 53.91756 | -36.78839 | 37458 ft | 476 kts | 69° |
| 2026-05-08 15:17 | 53.93025 | -36.67803 | 37463 ft | 476 kts | 69° |
| 2026-05-08 15:17 | 53.94284 | -36.56755 | 37465 ft | 477 kts | 69° |
| 2026-05-08 15:18 | 53.95526 | -36.45765 | 37472 ft | 478 kts | 69° |
| 2026-05-08 15:18 | 53.96770 | -36.34657 | 37469 ft | 478 kts | 69° |
| 2026-05-08 15:19 | 53.98005 | -36.23527 | 37470 ft | 478 kts | 70° |
| 2026-05-08 15:19 | 53.99227 | -36.12416 | 37478 ft | 478 kts | 70° |
| 2026-05-08 15:20 | 54.00434 | -36.01332 | 37467 ft | 476 kts | 70° |
| 2026-05-08 15:20 | 54.01611 | -35.90437 | 37479 ft | 475 kts | 70° |
| 2026-05-08 15:21 | 54.02785 | -35.79471 | 37472 ft | 473 kts | 70° |
| 2026-05-08 15:21 | 54.03954 | -35.68457 | 37474 ft | 472 kts | 70° |
| 2026-05-08 15:22 | 54.05112 | -35.57451 | 37481 ft | 472 kts | 70° |
| 2026-05-08 15:22 | 54.06254 | -35.46499 | 37482 ft | 472 kts | 70° |
| 2026-05-08 15:23 | 54.07395 | -35.35458 | 37491 ft | 474 kts | 70° |
| 2026-05-08 15:23 | 54.08530 | -35.24372 | 37492 ft | 476 kts | 70° |
| 2026-05-08 15:24 | 54.09657 | -35.13238 | 37483 ft | 477 kts | 71° |
| 2026-05-08 15:24 | 54.10775 | -35.02083 | 37504 ft | 478 kts | 71° |
| 2026-05-08 15:25 | 54.11862 | -34.91130 | 37499 ft | 478 kts | 71° |
| 2026-05-08 15:25 | 54.12964 | -34.79936 | 37501 ft | 480 kts | 72° |
| 2026-05-08 15:26 | 54.14059 | -34.68687 | 37502 ft | 481 kts | 72° |
| 2026-05-08 15:26 | 54.15146 | -34.57404 | 37504 ft | 482 kts | 72° |
| 2026-05-08 15:27 | 54.16221 | -34.46124 | 37505 ft | 482 kts | 72° |
| 2026-05-08 15:27 | 54.17287 | -34.34833 | 37510 ft | 482 kts | 72° |
| 2026-05-08 15:28 | 54.18337 | -34.23585 | 37509 ft | 482 kts | 72° |
| 2026-05-08 15:28 | 54.19383 | -34.12280 | 37511 ft | 482 kts | 72° |
| 2026-05-08 15:29 | 54.20417 | -34.00964 | 37511 ft | 481 kts | 72° |
| 2026-05-08 15:29 | 54.21427 | -33.89807 | 37512 ft | 481 kts | 72° |
| 2026-05-08 15:30 | 54.22439 | -33.78500 | 37512 ft | 481 kts | 72° |
| 2026-05-08 15:30 | 54.23435 | -33.67262 | 37519 ft | 482 kts | 73° |
| 2026-05-08 15:31 | 54.24428 | -33.55925 | 37521 ft | 482 kts | 73° |
| 2026-05-08 15:31 | 54.25412 | -33.44565 | 37523 ft | 483 kts | 73° |
| 2026-05-08 15:32 | 54.26384 | -33.33196 | 37517 ft | 483 kts | 73° |
| 2026-05-08 15:32 | 54.27183 | -33.23758 | 37519 ft | 482 kts | 73° |
| 2026-05-08 15:33 | 54.28136 | -33.12384 | 37544 ft | 482 kts | 74° |
| 2026-05-08 15:33 | 54.29077 | -33.01025 | 37524 ft | 481 kts | 74° |
| 2026-05-08 15:34 | 54.29992 | -32.89843 | 37518 ft | 480 kts | 74° |
| 2026-05-08 15:34 | 54.30908 | -32.78512 | 37521 ft | 480 kts | 74° |
| 2026-05-08 15:35 | 54.31813 | -32.67199 | 37528 ft | 479 kts | 74° |
| 2026-05-08 15:35 | 54.32707 | -32.55881 | 37553 ft | 479 kts | 75° |
| 2026-05-08 15:36 | 54.33590 | -32.44551 | 37528 ft | 479 kts | 75° |
| 2026-05-08 15:36 | 54.34456 | -32.33313 | 37520 ft | 479 kts | 75° |
| 2026-05-08 15:37 | 54.35317 | -32.21985 | 37524 ft | 478 kts | 75° |
| 2026-05-08 15:37 | 54.36165 | -32.10684 | 37522 ft | 478 kts | 75° |
| 2026-05-08 15:38 | 54.36992 | -31.99531 | 37566 ft | 478 kts | 75° |
| 2026-05-08 15:38 | 54.37821 | -31.88214 | 37528 ft | 478 kts | 75° |
| 2026-05-08 15:39 | 54.38638 | -31.76884 | 37520 ft | 477 kts | 75° |
| 2026-05-08 15:39 | 54.39442 | -31.65596 | 37523 ft | 476 kts | 75° |
| 2026-05-08 15:40 | 54.40236 | -31.54300 | 37522 ft | 476 kts | 76° |
| 2026-05-08 15:40 | 54.41014 | -31.43081 | 37560 ft | 476 kts | 76° |
| 2026-05-08 15:41 | 54.41787 | -31.31775 | 37525 ft | 476 kts | 76° |
| 2026-05-08 15:41 | 54.42548 | -31.20488 | 37519 ft | 476 kts | 76° |
| 2026-05-08 15:42 | 54.43295 | -31.09243 | 37521 ft | 475 kts | 76° |
| 2026-05-08 15:42 | 54.44025 | -30.98098 | 37519 ft | 475 kts | 76° |
| 2026-05-08 15:43 | 54.44754 | -30.86805 | 37534 ft | 475 kts | 76° |
| 2026-05-08 15:43 | 54.45476 | -30.75480 | 37517 ft | 476 kts | 77° |
| 2026-05-08 15:44 | 54.46183 | -30.64173 | 37515 ft | 475 kts | 77° |
| 2026-05-08 15:44 | 54.46879 | -30.52881 | 37516 ft | 475 kts | 77° |
| 2026-05-08 15:45 | 54.47565 | -30.41588 | 37515 ft | 474 kts | 77° |
| 2026-05-08 15:45 | 54.48237 | -30.30366 | 37512 ft | 474 kts | 77° |
| 2026-05-08 15:46 | 54.48902 | -30.19071 | 37517 ft | 475 kts | 77° |
| 2026-05-08 15:46 | 54.49557 | -30.07773 | 37513 ft | 474 kts | 77° |
| 2026-05-08 15:47 | 54.50177 | -29.96632 | 37508 ft | 474 kts | 78° |
| 2026-05-08 15:47 | 54.50652 | -29.85292 | 37510 ft | 475 kts | 79° |
| 2026-05-08 15:48 | 54.51278 | -29.68252 | 37535 ft | 475 kts | 79° |
| 2026-05-08 15:49 | 54.51698 | -29.56981 | 37533 ft | 475 kts | 79° |
| 2026-05-08 15:49 | 54.52120 | -29.45647 | 37515 ft | 474 kts | 79° |
| 2026-05-08 15:50 | 54.52532 | -29.34343 | 37498 ft | 473 kts | 79° |
| 2026-05-08 15:50 | 54.52932 | -29.23059 | 37495 ft | 472 kts | 79° |
| 2026-05-08 15:51 | 54.53322 | -29.11783 | 37516 ft | 471 kts | 79° |
| 2026-05-08 15:51 | 54.53700 | -29.00504 | 37503 ft | 471 kts | 79° |
| 2026-05-08 15:52 | 54.54064 | -28.89374 | 37502 ft | 471 kts | 79° |
| 2026-05-08 15:52 | 54.54420 | -28.78125 | 37495 ft | 471 kts | 79° |
| 2026-05-08 15:53 | 54.54767 | -28.66852 | 37497 ft | 471 kts | 79° |
| 2026-05-08 15:53 | 54.55102 | -28.55652 | 37496 ft | 471 kts | 79° |
| 2026-05-08 15:54 | 54.55428 | -28.44364 | 37496 ft | 472 kts | 79° |
| 2026-05-08 15:54 | 54.55744 | -28.33075 | 37494 ft | 472 kts | 79° |
| 2026-05-08 15:55 | 54.56050 | -28.21754 | 37497 ft | 472 kts | 80° |
| 2026-05-08 15:55 | 54.56489 | -28.04765 | 37490 ft | 473 kts | 80° |
| 2026-05-08 15:56 | 54.56764 | -27.93607 | 37523 ft | 473 kts | 80° |
| 2026-05-08 15:56 | 54.57032 | -27.82336 | 37493 ft | 473 kts | 80° |
| 2026-05-08 15:57 | 54.57290 | -27.71000 | 37481 ft | 473 kts | 80° |
| 2026-05-08 15:57 | 54.57538 | -27.59661 | 37480 ft | 472 kts | 80° |
| 2026-05-08 15:58 | 54.57775 | -27.48354 | 37479 ft | 472 kts | 80° |
| 2026-05-08 15:58 | 54.58000 | -27.37111 | 37477 ft | 472 kts | 80° |
| 2026-05-08 15:59 | 54.58217 | -27.25786 | 37475 ft | 473 kts | 80° |
| 2026-05-08 15:59 | 54.58422 | -27.14449 | 37470 ft | 473 kts | 81° |
| 2026-05-08 16:00 | 54.58617 | -27.03120 | 37496 ft | 473 kts | 81° |
| 2026-05-08 16:00 | 54.58800 | -26.91926 | 37474 ft | 473 kts | 81° |
| 2026-05-08 16:01 | 54.58974 | -26.80575 | 37469 ft | 474 kts | 81° |
| 2026-05-08 16:01 | 54.59138 | -26.69223 | 37465 ft | 474 kts | 81° |
| 2026-05-08 16:02 | 54.59291 | -26.57844 | 37448 ft | 474 kts | 81° |
| 2026-05-08 16:02 | 54.59433 | -26.46484 | 37458 ft | 474 kts | 81° |
| 2026-05-08 16:03 | 54.59564 | -26.35201 | 37459 ft | 473 kts | 81° |
| 2026-05-08 16:03 | 54.59685 | -26.23834 | 37455 ft | 473 kts | 82° |
| 2026-05-08 16:04 | 54.59796 | -26.12476 | 37468 ft | 473 kts | 82° |
| 2026-05-08 16:04 | 54.59897 | -26.01112 | 37450 ft | 474 kts | 82° |
| 2026-05-08 16:05 | 54.59985 | -25.89906 | 37442 ft | 474 kts | 82° |
| 2026-05-08 16:05 | 54.60063 | -25.78626 | 37442 ft | 473 kts | 82° |
| 2026-05-08 16:06 | 54.60131 | -25.67274 | 37444 ft | 473 kts | 82° |
| 2026-05-08 16:06 | 54.60189 | -25.55912 | 37470 ft | 473 kts | 83° |
| 2026-05-08 16:07 | 54.60236 | -25.44575 | 37449 ft | 473 kts | 83° |
| 2026-05-08 16:07 | 54.60271 | -25.33227 | 37441 ft | 472 kts | 83° |
| 2026-05-08 16:08 | 54.60297 | -25.21912 | 37430 ft | 472 kts | 83° |
| 2026-05-08 16:08 | 54.60312 | -25.10596 | 37421 ft | 471 kts | 83° |
| 2026-05-08 16:09 | 54.60317 | -25.01194 | 37428 ft | 471 kts | 83° |
| 2026-05-08 16:09 | 54.60312 | -24.88188 | 37432 ft | 472 kts | 84° |
| 2026-05-08 16:10 | 54.60295 | -24.76867 | 37428 ft | 472 kts | 84° |
| 2026-05-08 16:10 | 54.60268 | -24.65537 | 37423 ft | 472 kts | 84° |
| 2026-05-08 16:11 | 54.60231 | -24.54198 | 37418 ft | 472 kts | 84° |
| 2026-05-08 16:11 | 54.60183 | -24.42958 | 37429 ft | 472 kts | 84° |
| 2026-05-08 16:12 | 54.60125 | -24.31632 | 37421 ft | 473 kts | 84° |
| 2026-05-08 16:12 | 54.60055 | -24.20282 | 37414 ft | 473 kts | 84° |
| 2026-05-08 16:13 | 54.59975 | -24.08939 | 37409 ft | 473 kts | 84° |
| 2026-05-08 16:13 | 54.59886 | -23.97732 | 37410 ft | 473 kts | 84° |
| 2026-05-08 16:14 | 54.59786 | -23.86461 | 37407 ft | 473 kts | 84° |
| 2026-05-08 16:14 | 54.59675 | -23.75114 | 37427 ft | 473 kts | 85° |
| 2026-05-08 16:15 | 54.59553 | -23.63747 | 37410 ft | 474 kts | 85° |
| 2026-05-08 16:15 | 54.59419 | -23.52369 | 37404 ft | 475 kts | 85° |
| 2026-05-08 16:16 | 54.59275 | -23.40984 | 37396 ft | 475 kts | 85° |
| 2026-05-08 16:16 | 54.59120 | -23.29601 | 37397 ft | 475 kts | 85° |
| 2026-05-08 16:17 | 54.58984 | -23.20128 | 37410 ft | 475 kts | 86° |
| 2026-05-08 16:17 | 54.58781 | -23.06841 | 37398 ft | 477 kts | 86° |
| 2026-05-08 16:18 | 54.58595 | -22.95556 | 37388 ft | 478 kts | 86° |
| 2026-05-08 16:18 | 54.58396 | -22.84100 | 37388 ft | 478 kts | 86° |
| 2026-05-08 16:19 | 54.58187 | -22.72641 | 37388 ft | 478 kts | 86° |
| 2026-05-08 16:19 | 54.58004 | -22.63113 | 37380 ft | 478 kts | 86° |
| 2026-05-08 16:20 | 54.57774 | -22.51642 | 37380 ft | 478 kts | 87° |
| 2026-05-08 16:20 | 54.57534 | -22.40175 | 37378 ft | 478 kts | 87° |
| 2026-05-08 16:21 | 54.57283 | -22.28706 | 37378 ft | 478 kts | 87° |
| 2026-05-08 16:21 | 54.57021 | -22.17248 | 37372 ft | 478 kts | 87° |
| 2026-05-08 16:22 | 54.56748 | -22.05798 | 37372 ft | 478 kts | 87° |
| 2026-05-08 16:22 | 54.56469 | -21.94486 | 37387 ft | 479 kts | 88° |
| 2026-05-08 16:23 | 54.56176 | -21.83062 | 37368 ft | 481 kts | 89° |
| 2026-05-08 16:23 | 54.55869 | -21.71532 | 37366 ft | 482 kts | 89° |
| 2026-05-08 16:24 | 54.55550 | -21.59990 | 37362 ft | 482 kts | 89° |
| 2026-05-08 16:24 | 54.55220 | -21.48434 | 37360 ft | 483 kts | 89° |
| 2026-05-08 16:25 | 54.54879 | -21.36873 | 37375 ft | 484 kts | 89° |
| 2026-05-08 16:25 | 54.54527 | -21.25289 | 37361 ft | 484 kts | 89° |
| 2026-05-08 16:26 | 54.54162 | -21.13700 | 37354 ft | 485 kts | 89° |
| 2026-05-08 16:26 | 54.53788 | -21.02168 | 37347 ft | 485 kts | 90° |
| 2026-05-08 16:27 | 54.53407 | -20.90741 | 37348 ft | 485 kts | 90° |
| 2026-05-08 16:27 | 54.53010 | -20.79138 | 37355 ft | 485 kts | 90° |
| 2026-05-08 16:28 | 54.52600 | -20.67524 | 37324 ft | 486 kts | 90° |
| 2026-05-08 16:28 | 54.52180 | -20.55919 | 37338 ft | 486 kts | 91° |
| 2026-05-08 16:29 | 54.51748 | -20.44303 | 37341 ft | 486 kts | 91° |
| 2026-05-08 16:29 | 54.51305 | -20.32689 | 37338 ft | 486 kts | 91° |
| 2026-05-08 16:30 | 54.50855 | -20.21163 | 37351 ft | 486 kts | 91° |
| 2026-05-08 16:30 | 54.50392 | -20.09545 | 37339 ft | 487 kts | 91° |
| 2026-05-08 16:31 | 54.49628 | -19.98084 | 37336 ft | 490 kts | 99° |
| 2026-05-08 16:31 | 54.47781 | -19.86776 | 37341 ft | 492 kts | 105° |
| 2026-05-08 16:32 | 54.45729 | -19.75547 | 37326 ft | 492 kts | 105° |
| 2026-05-08 16:32 | 54.43686 | -19.64295 | 37327 ft | 493 kts | 105° |
| 2026-05-08 16:33 | 54.41662 | -19.53036 | 37333 ft | 493 kts | 105° |
| 2026-05-08 16:33 | 54.39639 | -19.41779 | 37322 ft | 494 kts | 105° |
| 2026-05-08 16:34 | 54.37610 | -19.30563 | 37315 ft | 494 kts | 105° |
| 2026-05-08 16:34 | 54.35559 | -19.19299 | 37317 ft | 495 kts | 105° |
| 2026-05-08 16:35 | 54.33496 | -19.08043 | 37309 ft | 494 kts | 105° |
| 2026-05-08 16:35 | 54.31453 | -18.96969 | 37310 ft | 494 kts | 105° |
| 2026-05-08 16:36 | 54.29382 | -18.85806 | 37305 ft | 496 kts | 106° |
| 2026-05-08 16:36 | 54.27279 | -18.74539 | 37305 ft | 498 kts | 106° |
| 2026-05-08 16:37 | 54.25152 | -18.63208 | 37299 ft | 501 kts | 106° |
| 2026-05-08 16:37 | 54.23010 | -18.51864 | 37302 ft | 501 kts | 107° |
| 2026-05-08 16:38 | 54.20869 | -18.40604 | 37292 ft | 500 kts | 107° |
| 2026-05-08 16:38 | 54.18711 | -18.29317 | 37302 ft | 499 kts | 107° |
| 2026-05-08 16:39 | 54.16540 | -18.18025 | 37295 ft | 500 kts | 107° |
| 2026-05-08 16:39 | 54.14357 | -18.06734 | 37287 ft | 501 kts | 108° |
| 2026-05-08 16:40 | 54.12198 | -17.95641 | 37283 ft | 503 kts | 108° |
| 2026-05-08 16:40 | 54.09980 | -17.84312 | 37284 ft | 503 kts | 108° |
| 2026-05-08 16:41 | 54.07753 | -17.73000 | 37291 ft | 502 kts | 109° |
| 2026-05-08 16:42 | 54.04421 | -17.56194 | 37282 ft | 501 kts | 109° |
| 2026-05-08 16:42 | 54.02179 | -17.44971 | 37278 ft | 501 kts | 110° |
| 2026-05-08 16:43 | 53.99923 | -17.33740 | 37270 ft | 501 kts | 110° |
| 2026-05-08 16:43 | 53.97658 | -17.22528 | 37262 ft | 501 kts | 110° |
| 2026-05-08 16:44 | 53.95394 | -17.11381 | 37272 ft | 501 kts | 110° |
| 2026-05-08 16:44 | 53.93112 | -17.00210 | 37261 ft | 501 kts | 111° |
| 2026-05-08 16:45 | 53.90857 | -16.89233 | 37264 ft | 500 kts | 111° |
| 2026-05-08 16:45 | 53.88553 | -16.78085 | 37259 ft | 500 kts | 111° |
| 2026-05-08 16:46 | 53.86241 | -16.66955 | 37259 ft | 500 kts | 111° |
| 2026-05-08 16:46 | 53.83932 | -16.55901 | 37247 ft | 500 kts | 111° |
| 2026-05-08 16:47 | 53.81601 | -16.44803 | 37241 ft | 499 kts | 111° |
| 2026-05-08 16:47 | 53.79261 | -16.33726 | 37245 ft | 499 kts | 111° |
| 2026-05-08 16:48 | 53.76920 | -16.22703 | 37248 ft | 498 kts | 112° |
| 2026-05-08 16:48 | 53.74581 | -16.11747 | 37244 ft | 498 kts | 112° |
| 2026-05-08 16:49 | 53.72217 | -16.00738 | 37242 ft | 498 kts | 112° |
| 2026-05-08 16:49 | 53.69878 | -15.89898 | 37246 ft | 498 kts | 112° |
| 2026-05-08 16:50 | 53.67495 | -15.78916 | 37225 ft | 498 kts | 112° |
| 2026-05-08 16:50 | 53.65108 | -15.67969 | 37235 ft | 497 kts | 113° |
| 2026-05-08 16:51 | 53.62706 | -15.57014 | 37235 ft | 497 kts | 113° |
| 2026-05-08 16:51 | 53.60299 | -15.46095 | 37228 ft | 497 kts | 113° |
| 2026-05-08 16:52 | 53.57877 | -15.35166 | 37225 ft | 497 kts | 113° |
| 2026-05-08 16:52 | 53.55463 | -15.24325 | 37224 ft | 497 kts | 113° |
| 2026-05-08 16:53 | 53.51810 | -15.07964 | 37216 ft | 497 kts | 112° |
| 2026-05-08 16:53 | 53.50261 | -14.96835 | 37225 ft | 502 kts | 101° |
| 2026-05-08 16:54 | 53.49910 | -14.85079 | 37217 ft | 505 kts | 92° |
| 2026-05-08 16:54 | 53.50011 | -14.73264 | 37209 ft | 505 kts | 91° |
| 2026-05-08 16:55 | 53.50086 | -14.61454 | 37218 ft | 505 kts | 92° |
| 2026-05-08 16:55 | 53.50102 | -14.49624 | 37211 ft | 506 kts | 92° |
| 2026-05-08 16:56 | 53.50093 | -14.37791 | 37214 ft | 506 kts | 93° |
| 2026-05-08 16:56 | 53.50075 | -14.26016 | 37207 ft | 507 kts | 93° |
| 2026-05-08 16:57 | 53.50048 | -14.14158 | 37200 ft | 507 kts | 93° |
| 2026-05-08 16:57 | 53.50011 | -14.02307 | 37187 ft | 507 kts | 93° |
| 2026-05-08 16:58 | 53.50225 | -13.90581 | 37360 ft | 512 kts | 90° |
| 2026-05-08 16:58 | 53.50424 | -13.84615 | 37748 ft | 510 kts | 89° |
| 2026-05-08 16:58 | 53.50635 | -13.78686 | 38221 ft | 507 kts | 89° |
| 2026-05-08 16:59 | 53.50842 | -13.72793 | 38689 ft | 504 kts | 88° |
| 2026-05-08 16:59 | 53.51039 | -13.66937 | 39065 ft | 501 kts | 88° |
| 2026-05-08 16:59 | 53.51226 | -13.61071 | 39213 ft | 503 kts | 88° |
| 2026-05-08 16:59 | 53.51402 | -13.55256 | 39190 ft | 506 kts | 89° |
| 2026-05-08 17:00 | 53.51744 | -13.43440 | 39192 ft | 505 kts | 89° |
| 2026-05-08 17:00 | 53.52070 | -13.31689 | 39192 ft | 502 kts | 89° |
| 2026-05-08 17:01 | 53.52384 | -13.19986 | 39192 ft | 501 kts | 89° |
| 2026-05-08 17:01 | 53.52687 | -13.08288 | 39175 ft | 500 kts | 89° |
| 2026-05-08 17:02 | 53.52975 | -12.96764 | 39180 ft | 500 kts | 89° |
| 2026-05-08 17:02 | 53.53256 | -12.85057 | 39189 ft | 502 kts | 90° |
| 2026-05-08 17:03 | 53.53525 | -12.73389 | 39190 ft | 503 kts | 90° |
| 2026-05-08 17:03 | 53.53785 | -12.61600 | 39188 ft | 505 kts | 90° |
| 2026-05-08 17:04 | 53.54035 | -12.49775 | 39169 ft | 506 kts | 90° |
| 2026-05-08 17:04 | 53.54273 | -12.37931 | 39181 ft | 507 kts | 90° |
| 2026-05-08 17:05 | 53.54462 | -12.28074 | 39182 ft | 507 kts | 90° |
| 2026-05-08 17:05 | 53.54679 | -12.16206 | 39178 ft | 507 kts | 90° |
| 2026-05-08 17:06 | 53.54916 | -12.02404 | 39175 ft | 507 kts | 90° |
| 2026-05-08 17:06 | 53.55074 | -11.92696 | 39170 ft | 507 kts | 91° |
| 2026-05-08 17:07 | 53.55255 | -11.80847 | 39171 ft | 507 kts | 91° |
| 2026-05-08 17:07 | 53.55425 | -11.68992 | 39169 ft | 507 kts | 91° |
| 2026-05-08 17:08 | 53.55583 | -11.57142 | 39168 ft | 507 kts | 91° |
| 2026-05-08 17:08 | 53.55730 | -11.45300 | 39156 ft | 506 kts | 91° |
| 2026-05-08 17:09 | 53.55864 | -11.33440 | 39162 ft | 507 kts | 91° |
| 2026-05-08 17:09 | 53.55988 | -11.21573 | 39166 ft | 507 kts | 91° |
| 2026-05-08 17:10 | 53.56098 | -11.09771 | 39165 ft | 508 kts | 91° |
| 2026-05-08 17:10 | 53.56197 | -10.98023 | 39162 ft | 508 kts | 91° |
| 2026-05-08 17:11 | 53.56285 | -10.86178 | 39162 ft | 508 kts | 91° |
| 2026-05-08 17:11 | 53.56361 | -10.74283 | 39156 ft | 508 kts | 92° |
| 2026-05-08 17:12 | 53.56426 | -10.62344 | 39151 ft | 508 kts | 92° |
| 2026-05-08 17:12 | 53.56479 | -10.50521 | 39151 ft | 508 kts | 92° |
| 2026-05-08 17:13 | 53.56520 | -10.38627 | 39131 ft | 508 kts | 92° |
| 2026-05-08 17:13 | 53.56549 | -10.26732 | 39140 ft | 508 kts | 92° |
| 2026-05-08 17:14 | 53.56567 | -10.14839 | 39144 ft | 508 kts | 92° |
| 2026-05-08 17:14 | 53.56572 | -10.02947 | 39136 ft | 508 kts | 92° |
| 2026-05-08 17:15 | 53.56567 | -9.91243 | 39142 ft | 508 kts | 92° |
| 2026-05-08 17:15 | 53.56549 | -9.79353 | 39131 ft | 508 kts | 92° |
| 2026-05-08 17:16 | 53.56519 | -9.67464 | 39134 ft | 508 kts | 93° |
| 2026-05-08 17:16 | 53.56478 | -9.55547 | 39122 ft | 508 kts | 93° |
| 2026-05-08 17:17 | 53.56425 | -9.43662 | 39125 ft | 508 kts | 93° |
| 2026-05-08 17:17 | 53.56360 | -9.31775 | 39114 ft | 508 kts | 93° |
| 2026-05-08 17:18 | 53.56284 | -9.19955 | 39117 ft | 508 kts | 93° |
| 2026-05-08 17:18 | 53.56195 | -9.08058 | 39115 ft | 509 kts | 93° |
| 2026-05-08 17:19 | 53.56097 | -8.96324 | 39111 ft | 509 kts | 93° |
| 2026-05-08 17:19 | 53.55984 | -8.84406 | 39109 ft | 509 kts | 94° |
| 2026-05-08 17:20 | 53.55860 | -8.72503 | 39103 ft | 509 kts | 94° |
| 2026-05-08 17:20 | 53.55725 | -8.60633 | 39110 ft | 510 kts | 94° |
| 2026-05-08 17:21 | 53.55578 | -8.48703 | 39104 ft | 510 kts | 94° |
| 2026-05-08 17:21 | 53.55417 | -8.36753 | 39116 ft | 510 kts | 94° |
| 2026-05-08 17:22 | 53.55245 | -8.24801 | 39089 ft | 511 kts | 94° |
| 2026-05-08 17:22 | 53.55062 | -8.12857 | 39099 ft | 511 kts | 94° |
| 2026-05-08 17:23 | 53.54868 | -8.00988 | 39104 ft | 510 kts | 94° |
| 2026-05-08 17:23 | 53.54666 | -7.89224 | 39100 ft | 510 kts | 94° |
| 2026-05-08 17:24 | 53.54452 | -7.77298 | 39093 ft | 510 kts | 94° |
| 2026-05-08 17:24 | 53.54221 | -7.65373 | 39101 ft | 510 kts | 94° |
| 2026-05-08 17:25 | 53.53977 | -7.53427 | 39109 ft | 510 kts | 94° |
| 2026-05-08 17:25 | 53.53722 | -7.41512 | 39104 ft | 510 kts | 94° |
| 2026-05-08 17:26 | 53.53455 | -7.29566 | 39102 ft | 511 kts | 94° |
| 2026-05-08 17:26 | 53.53178 | -7.17711 | 39102 ft | 511 kts | 95° |
| 2026-05-08 17:27 | 53.52888 | -7.05781 | 39091 ft | 510 kts | 95° |
| 2026-05-08 17:27 | 53.52591 | -6.94055 | 39104 ft | 509 kts | 95° |
| 2026-05-08 17:28 | 53.52273 | -6.82141 | 39111 ft | 509 kts | 95° |
| 2026-05-08 17:28 | 53.51946 | -6.70245 | 39108 ft | 508 kts | 95° |
| 2026-05-08 17:29 | 53.51613 | -6.58440 | 39119 ft | 508 kts | 95° |
| 2026-05-08 17:29 | 53.51266 | -6.46575 | 39109 ft | 508 kts | 95° |
| 2026-05-08 17:30 | 53.50907 | -6.34726 | 39123 ft | 507 kts | 96° |
| 2026-05-08 17:30 | 53.50537 | -6.22876 | 39117 ft | 507 kts | 96° |
| 2026-05-08 17:31 | 53.50154 | -6.11037 | 39117 ft | 508 kts | 96° |
| 2026-05-08 17:31 | 53.49768 | -5.99420 | 39118 ft | 508 kts | 96° |
| 2026-05-08 17:32 | 53.49362 | -5.87557 | 39115 ft | 509 kts | 96° |
| 2026-05-08 17:32 | 53.48944 | -5.75676 | 39115 ft | 509 kts | 96° |
| 2026-05-08 17:33 | 53.48514 | -5.63802 | 39116 ft | 510 kts | 96° |
| 2026-05-08 17:33 | 53.48074 | -5.51924 | 39114 ft | 510 kts | 96° |
| 2026-05-08 17:34 | 53.47553 | -5.40035 | 39115 ft | 509 kts | 97° |
| 2026-05-08 17:34 | 53.46933 | -5.28194 | 39115 ft | 509 kts | 98° |
| 2026-05-08 17:35 | 53.46303 | -5.16428 | 39106 ft | 509 kts | 97° |
| 2026-05-08 17:35 | 53.45673 | -5.04582 | 39107 ft | 509 kts | 97° |
| 2026-05-08 17:36 | 53.45050 | -4.92924 | 39108 ft | 509 kts | 97° |
| 2026-05-08 17:36 | 53.44406 | -4.81080 | 39098 ft | 510 kts | 97° |
| 2026-05-08 17:37 | 53.43752 | -4.69290 | 39093 ft | 510 kts | 97° |
| 2026-05-08 17:37 | 53.43083 | -4.57449 | 39094 ft | 510 kts | 97° |
| 2026-05-08 17:38 | 53.42401 | -4.45605 | 39100 ft | 510 kts | 97° |
| 2026-05-08 17:38 | 53.41709 | -4.33781 | 39097 ft | 510 kts | 98° |
| 2026-05-08 17:39 | 53.41004 | -4.21944 | 39097 ft | 510 kts | 98° |
| 2026-05-08 17:39 | 53.40292 | -4.10170 | 39084 ft | 510 kts | 98° |
| 2026-05-08 17:40 | 53.39575 | -3.98531 | 39093 ft | 509 kts | 98° |
| 2026-05-08 17:40 | 53.38837 | -3.86720 | 39093 ft | 509 kts | 98° |
| 2026-05-08 17:41 | 53.38088 | -3.74931 | 39087 ft | 509 kts | 98° |
| 2026-05-08 17:41 | 53.37326 | -3.63135 | 39092 ft | 509 kts | 98° |
| 2026-05-08 17:42 | 53.36553 | -3.51351 | 39085 ft | 509 kts | 98° |
| 2026-05-08 17:42 | 53.35768 | -3.39560 | 39086 ft | 509 kts | 98° |
| 2026-05-08 17:43 | 53.34972 | -3.27780 | 39081 ft | 510 kts | 98° |
| 2026-05-08 17:43 | 53.34163 | -3.15988 | 39080 ft | 510 kts | 98° |
| 2026-05-08 17:44 | 53.33348 | -3.04282 | 39065 ft | 510 kts | 98° |
| 2026-05-08 17:44 | 53.32529 | -2.92674 | 39076 ft | 510 kts | 98° |
| 2026-05-08 17:45 | 53.31685 | -2.80888 | 39079 ft | 510 kts | 98° |
| 2026-05-08 17:45 | 53.30828 | -2.69091 | 39080 ft | 510 kts | 98° |
| 2026-05-08 17:46 | 53.29960 | -2.57311 | 39076 ft | 511 kts | 98° |
| 2026-05-08 17:46 | 53.29080 | -2.45534 | 39076 ft | 510 kts | 98° |
| 2026-05-08 17:47 | 53.28197 | -2.33855 | 39077 ft | 510 kts | 98° |
| 2026-05-08 17:47 | 53.27442 | -2.23995 | 39075 ft | 510 kts | 98° |
| 2026-05-08 17:48 | 53.26383 | -2.10352 | 39075 ft | 509 kts | 98° |
| 2026-05-08 17:48 | 53.25474 | -1.98803 | 39078 ft | 509 kts | 98° |
| 2026-05-08 17:49 | 53.24540 | -1.87092 | 39083 ft | 508 kts | 98° |
| 2026-05-08 17:49 | 53.23601 | -1.75460 | 39071 ft | 508 kts | 98° |
| 2026-05-08 17:50 | 53.22648 | -1.63796 | 39084 ft | 507 kts | 99° |
| 2026-05-08 17:50 | 53.21684 | -1.52148 | 39079 ft | 507 kts | 98° |
| 2026-05-08 17:51 | 53.20874 | -1.42467 | 39077 ft | 506 kts | 98° |
| 2026-05-08 17:51 | 53.19890 | -1.30834 | 39082 ft | 506 kts | 98° |
| 2026-05-08 17:52 | 53.18894 | -1.19205 | 39080 ft | 507 kts | 98° |
| 2026-05-08 17:53 | 53.17378 | -1.01755 | 39077 ft | 507 kts | 99° |
| 2026-05-08 17:53 | 53.16368 | -0.90299 | 39097 ft | 507 kts | 99° |
| 2026-05-08 17:54 | 53.15331 | -0.78668 | 39097 ft | 506 kts | 99° |
| 2026-05-08 17:54 | 53.14284 | -0.67051 | 39100 ft | 506 kts | 99° |
| 2026-05-08 17:55 | 53.13236 | -0.55561 | 39104 ft | 505 kts | 99° |
| 2026-05-08 17:55 | 53.12169 | -0.43991 | 39098 ft | 505 kts | 99° |
| 2026-05-08 17:56 | 53.11090 | -0.32412 | 39109 ft | 505 kts | 99° |
| 2026-05-08 17:56 | 53.10002 | -0.20863 | 39101 ft | 505 kts | 99° |
| 2026-05-08 17:57 | 53.08910 | -0.09400 | 39097 ft | 505 kts | 99° |
| 2026-05-08 17:57 | 53.07817 | 0.01954 | 39111 ft | 504 kts | 99° |
| 2026-05-08 17:58 | 53.06696 | 0.13484 | 39114 ft | 504 kts | 99° |
| 2026-05-08 17:58 | 53.05568 | 0.24969 | 39104 ft | 503 kts | 99° |
| 2026-05-08 17:59 | 53.04428 | 0.36444 | 39102 ft | 502 kts | 99° |
| 2026-05-08 17:59 | 53.03288 | 0.47818 | 39114 ft | 502 kts | 99° |
| 2026-05-08 18:00 | 53.02130 | 0.59247 | 39109 ft | 501 kts | 99° |
| 2026-05-08 18:00 | 53.00373 | 0.76379 | 39110 ft | 501 kts | 99° |
| 2026-05-08 18:01 | 52.99190 | 0.87775 | 39124 ft | 500 kts | 99° |
| 2026-05-08 18:01 | 52.98009 | 0.99071 | 39121 ft | 500 kts | 100° |
| 2026-05-08 18:02 | 52.96769 | 1.10218 | 39132 ft | 499 kts | 101° |
| 2026-05-08 18:02 | 52.95437 | 1.21510 | 39134 ft | 498 kts | 101° |
| 2026-05-08 18:03 | 52.94099 | 1.32798 | 39131 ft | 498 kts | 101° |
| 2026-05-08 18:03 | 52.92766 | 1.44054 | 39131 ft | 498 kts | 101° |
| 2026-05-08 18:04 | 52.91427 | 1.55327 | 39134 ft | 498 kts | 101° |
| 2026-05-08 18:04 | 52.90755 | 1.60951 | 39022 ft | 499 kts | 101° |
| 2026-05-08 18:04 | 52.90065 | 1.66682 | 37967 ft | 511 kts | 101° |
| 2026-05-08 18:05 | 52.89368 | 1.72447 | 37241 ft | 509 kts | 101° |
| 2026-05-08 18:05 | 52.88671 | 1.78179 | 36474 ft | 508 kts | 100° |
| 2026-05-08 18:05 | 52.87982 | 1.83826 | 35724 ft | 507 kts | 100° |
| 2026-05-08 18:05 | 52.87280 | 1.89564 | 34850 ft | 510 kts | 99° |
| 2026-05-08 18:06 | 52.86570 | 1.95341 | 33935 ft | 514 kts | 99° |
| 2026-05-08 18:06 | 52.85874 | 2.00985 | 32914 ft | 517 kts | 100° |
| 2026-05-08 18:06 | 52.85151 | 2.06820 | 31903 ft | 519 kts | 99° |
| 2026-05-08 18:06 | 52.84427 | 2.12625 | 31254 ft | 512 kts | 100° |
| 2026-05-08 18:07 | 52.83705 | 2.18375 | 30587 ft | 506 kts | 100° |
| 2026-05-08 18:07 | 52.82993 | 2.24041 | 29892 ft | 500 kts | 100° |
| 2026-05-08 18:07 | 52.82287 | 2.29639 | 29195 ft | 494 kts | 100° |
| 2026-05-08 18:07 | 52.81588 | 2.35167 | 28547 ft | 487 kts | 101° |
| 2026-05-08 18:08 | 52.80906 | 2.40551 | 27925 ft | 481 kts | 101° |
| 2026-05-08 18:08 | 52.80222 | 2.45925 | 27302 ft | 476 kts | 101° |
| 2026-05-08 18:08 | 52.79540 | 2.51256 | 26672 ft | 471 kts | 101° |
| 2026-05-08 18:08 | 52.78859 | 2.56532 | 26053 ft | 466 kts | 101° |
| 2026-05-08 18:09 | 52.78130 | 2.61737 | 25341 ft | 463 kts | 104° |
| 2026-05-08 18:09 | 52.77248 | 2.66846 | 24667 ft | 461 kts | 106° |
| 2026-05-08 18:09 | 52.76307 | 2.71877 | 24045 ft | 457 kts | 107° |
| 2026-05-08 18:09 | 52.75354 | 2.76857 | 23388 ft | 453 kts | 108° |
| 2026-05-08 18:10 | 52.74410 | 2.81794 | 22724 ft | 448 kts | 108° |
| 2026-05-08 18:10 | 52.73486 | 2.86678 | 22117 ft | 442 kts | 107° |
| 2026-05-08 18:10 | 52.72595 | 2.91434 | 21530 ft | 437 kts | 107° |
| 2026-05-08 18:10 | 52.71708 | 2.96192 | 20968 ft | 431 kts | 107° |
| 2026-05-08 18:11 | 52.70857 | 3.00764 | 20414 ft | 427 kts | 108° |
| 2026-05-08 18:11 | 52.69992 | 3.05415 | 19852 ft | 422 kts | 108° |
| 2026-05-08 18:11 | 52.69134 | 3.10017 | 19304 ft | 418 kts | 108° |
| 2026-05-08 18:11 | 52.68283 | 3.14574 | 18750 ft | 414 kts | 108° |
| 2026-05-08 18:12 | 52.67433 | 3.19104 | 18161 ft | 411 kts | 108° |
| 2026-05-08 18:12 | 52.66591 | 3.23583 | 17550 ft | 407 kts | 108° |
| 2026-05-08 18:12 | 52.65753 | 3.28029 | 16976 ft | 403 kts | 108° |
| 2026-05-08 18:12 | 52.64923 | 3.32421 | 16428 ft | 400 kts | 108° |
| 2026-05-08 18:13 | 52.64096 | 3.36789 | 15876 ft | 396 kts | 108° |
| 2026-05-08 18:13 | 52.63287 | 3.41046 | 15349 ft | 393 kts | 108° |
| 2026-05-08 18:13 | 52.62471 | 3.45337 | 14797 ft | 391 kts | 108° |
| 2026-05-08 18:13 | 52.61662 | 3.49581 | 14278 ft | 388 kts | 108° |
| 2026-05-08 18:14 | 52.60850 | 3.53827 | 13713 ft | 386 kts | 108° |
| 2026-05-08 18:14 | 52.60044 | 3.58036 | 13130 ft | 384 kts | 109° |
| 2026-05-08 18:14 | 52.59243 | 3.62210 | 12580 ft | 381 kts | 108° |
| 2026-05-08 18:14 | 52.58458 | 3.66293 | 12042 ft | 372 kts | 109° |
| 2026-05-08 18:15 | 52.57691 | 3.70277 | 11521 ft | 356 kts | 109° |
| 2026-05-08 18:15 | 52.56957 | 3.74081 | 11036 ft | 342 kts | 109° |
| 2026-05-08 18:15 | 52.56260 | 3.77690 | 10851 ft | 320 kts | 109° |
| 2026-05-08 18:15 | 52.55607 | 3.81058 | 10706 ft | 299 kts | 109° |
| 2026-05-08 18:16 | 52.54994 | 3.84215 | 10570 ft | 280 kts | 109° |
| 2026-05-08 18:16 | 52.54412 | 3.87213 | 10466 ft | 271 kts | 109° |
| 2026-05-08 18:16 | 52.53850 | 3.90093 | 10368 ft | 267 kts | 109° |
| 2026-05-08 18:16 | 52.53129 | 3.92899 | 10261 ft | 267 kts | 125° |
| 2026-05-08 18:17 | 52.52000 | 3.95382 | 10120 ft | 275 kts | 131° |
| 2026-05-08 18:17 | 52.50769 | 3.97808 | 9934 ft | 278 kts | 132° |
| 2026-05-08 18:17 | 52.49543 | 4.00167 | 9931 ft | 284 kts | 132° |
| 2026-05-08 18:17 | 52.48229 | 4.02630 | 9809 ft | 287 kts | 132° |
| 2026-05-08 18:18 | 52.46927 | 4.05068 | 9712 ft | 287 kts | 132° |
| 2026-05-08 18:18 | 52.45614 | 4.07525 | 9609 ft | 286 kts | 132° |
| 2026-05-08 18:18 | 52.44302 | 4.09973 | 9471 ft | 285 kts | 132° |
| 2026-05-08 18:18 | 52.42994 | 4.12418 | 9420 ft | 286 kts | 132° |
| 2026-05-08 18:19 | 52.41676 | 4.14873 | 9234 ft | 287 kts | 132° |
| 2026-05-08 18:19 | 52.40351 | 4.17342 | 8881 ft | 288 kts | 132° |
| 2026-05-08 18:19 | 52.39030 | 4.19801 | 8495 ft | 286 kts | 132° |
| 2026-05-08 18:19 | 52.37725 | 4.22236 | 8115 ft | 283 kts | 132° |
| 2026-05-08 18:20 | 52.36431 | 4.24648 | 7708 ft | 281 kts | 132° |
| 2026-05-08 18:20 | 52.35141 | 4.27061 | 7258 ft | 281 kts | 132° |
| 2026-05-08 18:20 | 52.33852 | 4.29478 | 6758 ft | 283 kts | 132° |
| 2026-05-08 18:20 | 52.32563 | 4.31892 | 6193 ft | 280 kts | 132° |
| 2026-05-08 18:21 | 52.31293 | 4.34266 | 5620 ft | 274 kts | 132° |
| 2026-05-08 18:21 | 52.30053 | 4.36553 | 5034 ft | 263 kts | 132° |
| 2026-05-08 18:21 | 52.28851 | 4.38734 | 4433 ft | 253 kts | 132° |
| 2026-05-08 18:21 | 52.27684 | 4.40826 | 3873 ft | 245 kts | 132° |
| 2026-05-08 18:22 | 52.26556 | 4.42821 | 3340 ft | 238 kts | 132° |
| 2026-05-08 18:22 | 52.25460 | 4.44747 | 2909 ft | 226 kts | 131° |
| 2026-05-08 18:22 | 52.24405 | 4.46561 | 2499 ft | 215 kts | 132° |
| 2026-05-08 18:22 | 52.23408 | 4.48264 | 2151 ft | 201 kts | 132° |
| 2026-05-08 18:23 | 52.22479 | 4.49826 | 2007 ft | 182 kts | 133° |
| 2026-05-08 18:23 | 52.21607 | 4.51423 | 2007 ft | 190 kts | 118° |
| 2026-05-08 18:23 | 52.21375 | 4.53431 | 2001 ft | 180 kts | 76° |
| 2026-05-08 18:23 | 52.21873 | 4.55274 | 2018 ft | 179 kts | 62° |
| 2026-05-08 18:24 | 52.22498 | 4.57063 | 2008 ft | 181 kts | 59° |
| 2026-05-08 18:24 | 52.23137 | 4.58750 | 1994 ft | 168 kts | 58° |
| 2026-05-08 18:24 | 52.23741 | 4.60320 | 1950 ft | 162 kts | 58° |
| 2026-05-08 18:24 | 52.24342 | 4.61876 | 1700 ft | 159 kts | 58° |
| 2026-05-08 18:25 | 52.24925 | 4.63383 | 1479 ft | 154 kts | 58° |
| 2026-05-08 18:25 | 52.25490 | 4.64852 | 1277 ft | 152 kts | 57° |
| 2026-05-08 18:25 | 52.26050 | 4.66302 | 1051 ft | 147 kts | 57° |
| 2026-05-08 18:25 | 52.26576 | 4.67669 | 821 ft | 139 kts | 58° |
| 2026-05-08 18:26 | 52.27051 | 4.69052 | 730 ft | 138 kts | 62° |
| 2026-05-08 18:26 | 52.27587 | 4.70379 | 548 ft | 140 kts | 53° |
| 2026-05-08 18:26 | 52.28132 | 4.71708 | 315 ft | 141 kts | 58° |
| 2026-05-08 18:26 | 52.28643 | 4.73025 | 136 ft | 139 kts | 58° |
| 2026-05-08 18:27 | 52.29162 | 4.74366 | 17 ft | 134 kts | 58° |
| 2026-05-08 18:27 | 52.29467 | 4.75164 | 2 ft | 117 kts | 58° |
| 2026-05-08 18:27 | 52.29927 | 4.76368 | 1 ft | 70 kts | 58° |
| 2026-05-08 18:27 | 52.30137 | 4.76909 | 2 ft | 55 kts | 57° |
| 2026-05-08 18:28 | 52.30321 | 4.77301 | 1 ft | 17 kts | 36° |
| 2026-05-08 18:28 | 52.30409 | 4.77389 | 3 ft | 11 kts | 25° |
| 2026-05-08 18:28 | 52.30484 | 4.77401 | 3 ft | 11 kts | 359° |
| 2026-05-08 18:28 | 52.30550 | 4.77450 | 4 ft | 11 kts | 45° |
| 2026-05-08 18:29 | 52.30605 | 4.77541 | 4 ft | 11 kts | 39° |
| 2026-05-08 18:29 | 52.30677 | 4.77586 | 4 ft | 11 kts | 7° |
| 2026-05-08 18:29 | 52.30758 | 4.77596 | 4 ft | 12 kts | 2° |
| 2026-05-08 18:29 | 52.30830 | 4.77599 | 4 ft | 5 kts | 1° |
| 2026-05-08 18:30 | 52.30876 | 4.77603 | 4 ft | 12 kts | 4° |
| 2026-05-08 18:30 | 52.30972 | 4.77610 | 4 ft | 14 kts | 351° |
| 2026-05-08 18:30 | 52.31041 | 4.77505 | 4 ft | 14 kts | 303° |
| 2026-05-08 18:30 | 52.31069 | 4.77350 | 4 ft | 15 kts | 275° |
| 2026-05-08 18:31 | 52.31076 | 4.77184 | 4 ft | 15 kts | 274° |
| 2026-05-08 18:31 | 52.31082 | 4.77023 | 4 ft | 14 kts | 279° |
| 2026-05-08 18:31 | 52.31140 | 4.76948 | 4 ft | 9 kts | 4° |
| 2026-05-08 18:31 | 52.31201 | 4.76995 | 4 ft | 10 kts | 30° |
| 2026-05-08 18:32 | 52.31250 | 4.77001 | 4 ft | 6 kts | 322° |
| 2026-05-08 18:32 | 52.31275 | 4.76950 | 4 ft | 6 kts | 302° |
| 2026-05-08 18:32 | 52.31284 | 4.76926 | 4 ft | 2 kts | 303° |
| 2026-05-08 18:32 | 52.31285 | 4.76924 | 4 ft | 0 kts | 303° |